<?xml version="1.0" encoding="UTF-8" standalone="no" ?>
<gpx xmlns="http://www.topografix.com/GPX/1/1" xmlns:xsi="http://www.w3.org/2001/XMLSchema-instance" xsi:schemaLocation="http://www.topografix.com/GPX/1/1 http://www.topografix.com/GPX/1/1/gpx.xsd" version="1.1" creator="VisuGPX - https://www.visugpx.com">
  <metadata>
    <name>Vers Gué de Selle</name>
    <desc><![CDATA[Avec passage sur les lieux de ma chute du 13 janvier]]></desc>
  </metadata>
  <trk>
    <name><![CDATA[VTT de 30.2 km vers Gué de Selle]]></name>
    <trkseg>
      <trkpt lat="48.25231" lon="-0.35964">
        <ele>241.326</ele>
        <time>2016-08-16T07:04:33Z</time>
      </trkpt>
      <trkpt lat="48.25225" lon="-0.35993">
        <ele>243.27</ele>
        <time>2016-08-16T07:04:53Z</time>
      </trkpt>
      <trkpt lat="48.25212" lon="-0.36022">
        <ele>240.749</ele>
        <time>2016-08-16T07:05:01Z</time>
      </trkpt>
      <trkpt lat="48.25197" lon="-0.36048">
        <ele>239.919</ele>
        <time>2016-08-16T07:05:07Z</time>
      </trkpt>
      <trkpt lat="48.25187" lon="-0.36062">
        <ele>240.011</ele>
        <time>2016-08-16T07:05:10Z</time>
      </trkpt>
      <trkpt lat="48.2517" lon="-0.36085">
        <ele>239.681</ele>
        <time>2016-08-16T07:05:16Z</time>
      </trkpt>
      <trkpt lat="48.25151" lon="-0.36111">
        <ele>237.656</ele>
        <time>2016-08-16T07:05:23Z</time>
      </trkpt>
      <trkpt lat="48.25135" lon="-0.36137">
        <ele>237.208</ele>
        <time>2016-08-16T07:05:29Z</time>
      </trkpt>
      <trkpt lat="48.2513" lon="-0.36167">
        <ele>236.773</ele>
        <time>2016-08-16T07:05:35Z</time>
      </trkpt>
      <trkpt lat="48.25116" lon="-0.36186">
        <ele>233.073</ele>
        <time>2016-08-16T07:05:40Z</time>
      </trkpt>
      <trkpt lat="48.25102" lon="-0.36199">
        <ele>230.607</ele>
        <time>2016-08-16T07:05:44Z</time>
      </trkpt>
      <trkpt lat="48.25082" lon="-0.36223">
        <ele>229.571</ele>
        <time>2016-08-16T07:05:51Z</time>
      </trkpt>
      <trkpt lat="48.25081" lon="-0.36248">
        <ele>230.304</ele>
        <time>2016-08-16T07:05:59Z</time>
      </trkpt>
      <trkpt lat="48.25094" lon="-0.36288">
        <ele>232.341</ele>
        <time>2016-08-16T07:06:07Z</time>
      </trkpt>
      <trkpt lat="48.25103" lon="-0.36309">
        <ele>231.302</ele>
        <time>2016-08-16T07:06:12Z</time>
      </trkpt>
      <trkpt lat="48.25121" lon="-0.36343">
        <ele>229.538</ele>
        <time>2016-08-16T07:06:20Z</time>
      </trkpt>
      <trkpt lat="48.25131" lon="-0.36362">
        <ele>229.185</ele>
        <time>2016-08-16T07:06:25Z</time>
      </trkpt>
      <trkpt lat="48.25152" lon="-0.36405">
        <ele>228.665</ele>
        <time>2016-08-16T07:06:34Z</time>
      </trkpt>
      <trkpt lat="48.25166" lon="-0.36427">
        <ele>228.907</ele>
        <time>2016-08-16T07:06:39Z</time>
      </trkpt>
      <trkpt lat="48.25179" lon="-0.3645">
        <ele>229.625</ele>
        <time>2016-08-16T07:06:45Z</time>
      </trkpt>
      <trkpt lat="48.25195" lon="-0.36473">
        <ele>230.144</ele>
        <time>2016-08-16T07:06:53Z</time>
      </trkpt>
      <trkpt lat="48.25179" lon="-0.36511">
        <ele>230.596</ele>
        <time>2016-08-16T07:07:00Z</time>
      </trkpt>
      <trkpt lat="48.25168" lon="-0.36526">
        <ele>226.693</ele>
        <time>2016-08-16T07:07:03Z</time>
      </trkpt>
      <trkpt lat="48.25158" lon="-0.36539">
        <ele>225.015</ele>
        <time>2016-08-16T07:07:06Z</time>
      </trkpt>
      <trkpt lat="48.25147" lon="-0.36555">
        <ele>224.873</ele>
        <time>2016-08-16T07:07:09Z</time>
      </trkpt>
      <trkpt lat="48.25132" lon="-0.36572">
        <ele>225.75</ele>
        <time>2016-08-16T07:07:13Z</time>
      </trkpt>
      <trkpt lat="48.25112" lon="-0.36598">
        <ele>226.114</ele>
        <time>2016-08-16T07:07:19Z</time>
      </trkpt>
      <trkpt lat="48.25095" lon="-0.36616">
        <ele>224.89</ele>
        <time>2016-08-16T07:07:24Z</time>
      </trkpt>
      <trkpt lat="48.25077" lon="-0.36636">
        <ele>224.457</ele>
        <time>2016-08-16T07:07:30Z</time>
      </trkpt>
      <trkpt lat="48.2506" lon="-0.36658">
        <ele>227.069</ele>
        <time>2016-08-16T07:07:36Z</time>
      </trkpt>
      <trkpt lat="48.25037" lon="-0.36683">
        <ele>227.695</ele>
        <time>2016-08-16T07:07:43Z</time>
      </trkpt>
      <trkpt lat="48.25026" lon="-0.36693">
        <ele>228.352</ele>
        <time>2016-08-16T07:07:46Z</time>
      </trkpt>
      <trkpt lat="48.25015" lon="-0.36704">
        <ele>228.458</ele>
        <time>2016-08-16T07:07:49Z</time>
      </trkpt>
      <trkpt lat="48.24995" lon="-0.36717">
        <ele>229.525</ele>
        <time>2016-08-16T07:07:55Z</time>
      </trkpt>
      <trkpt lat="48.24981" lon="-0.3672">
        <ele>229.801</ele>
        <time>2016-08-16T07:08:00Z</time>
      </trkpt>
      <trkpt lat="48.24951" lon="-0.36707">
        <ele>230.424</ele>
        <time>2016-08-16T07:08:08Z</time>
      </trkpt>
      <trkpt lat="48.24933" lon="-0.36681">
        <ele>230.517</ele>
        <time>2016-08-16T07:08:15Z</time>
      </trkpt>
      <trkpt lat="48.24928" lon="-0.3667">
        <ele>230.532</ele>
        <time>2016-08-16T07:08:18Z</time>
      </trkpt>
      <trkpt lat="48.2492" lon="-0.36648">
        <ele>230.814</ele>
        <time>2016-08-16T07:08:23Z</time>
      </trkpt>
      <trkpt lat="48.24905" lon="-0.36614">
        <ele>231.408</ele>
        <time>2016-08-16T07:08:31Z</time>
      </trkpt>
      <trkpt lat="48.24896" lon="-0.36587">
        <ele>232.79</ele>
        <time>2016-08-16T07:08:38Z</time>
      </trkpt>
      <trkpt lat="48.2488" lon="-0.36559">
        <ele>233.792</ele>
        <time>2016-08-16T07:08:46Z</time>
      </trkpt>
      <trkpt lat="48.24868" lon="-0.3653">
        <ele>234.727</ele>
        <time>2016-08-16T07:08:52Z</time>
      </trkpt>
      <trkpt lat="48.24859" lon="-0.36509">
        <ele>235.656</ele>
        <time>2016-08-16T07:08:57Z</time>
      </trkpt>
      <trkpt lat="48.24845" lon="-0.36481">
        <ele>237.194</ele>
        <time>2016-08-16T07:09:04Z</time>
      </trkpt>
      <trkpt lat="48.24826" lon="-0.36463">
        <ele>238.707</ele>
        <time>2016-08-16T07:09:12Z</time>
      </trkpt>
      <trkpt lat="48.24802" lon="-0.36472">
        <ele>239.69</ele>
        <time>2016-08-16T07:09:20Z</time>
      </trkpt>
      <trkpt lat="48.24794" lon="-0.36491">
        <ele>240.804</ele>
        <time>2016-08-16T07:09:26Z</time>
      </trkpt>
      <trkpt lat="48.24792" lon="-0.36519">
        <ele>242.333</ele>
        <time>2016-08-16T07:09:32Z</time>
      </trkpt>
      <trkpt lat="48.24792" lon="-0.3655">
        <ele>244.175</ele>
        <time>2016-08-16T07:09:39Z</time>
      </trkpt>
      <trkpt lat="48.24791" lon="-0.36571">
        <ele>244.955</ele>
        <time>2016-08-16T07:09:43Z</time>
      </trkpt>
      <trkpt lat="48.24789" lon="-0.36585">
        <ele>245.657</ele>
        <time>2016-08-16T07:09:47Z</time>
      </trkpt>
      <trkpt lat="48.24786" lon="-0.36608">
        <ele>246.561</ele>
        <time>2016-08-16T07:09:52Z</time>
      </trkpt>
      <trkpt lat="48.24776" lon="-0.3664">
        <ele>247.713</ele>
        <time>2016-08-16T07:10:01Z</time>
      </trkpt>
      <trkpt lat="48.2476" lon="-0.36669">
        <ele>249.371</ele>
        <time>2016-08-16T07:10:09Z</time>
      </trkpt>
      <trkpt lat="48.24743" lon="-0.36689">
        <ele>250.45</ele>
        <time>2016-08-16T07:10:17Z</time>
      </trkpt>
      <trkpt lat="48.24728" lon="-0.36702">
        <ele>251.71</ele>
        <time>2016-08-16T07:10:23Z</time>
      </trkpt>
      <trkpt lat="48.24709" lon="-0.36711">
        <ele>252.821</ele>
        <time>2016-08-16T07:10:30Z</time>
      </trkpt>
      <trkpt lat="48.24695" lon="-0.36714">
        <ele>253.56</ele>
        <time>2016-08-16T07:10:35Z</time>
      </trkpt>
      <trkpt lat="48.24676" lon="-0.36708">
        <ele>254.811</ele>
        <time>2016-08-16T07:10:43Z</time>
      </trkpt>
      <trkpt lat="48.24664" lon="-0.36702">
        <ele>255.341</ele>
        <time>2016-08-16T07:10:47Z</time>
      </trkpt>
      <trkpt lat="48.24649" lon="-0.36693">
        <ele>256.289</ele>
        <time>2016-08-16T07:10:52Z</time>
      </trkpt>
      <trkpt lat="48.24629" lon="-0.36683">
        <ele>257.904</ele>
        <time>2016-08-16T07:11:00Z</time>
      </trkpt>
      <trkpt lat="48.24612" lon="-0.36675">
        <ele>259.158</ele>
        <time>2016-08-16T07:11:06Z</time>
      </trkpt>
      <trkpt lat="48.24599" lon="-0.3667">
        <ele>260.233</ele>
        <time>2016-08-16T07:11:11Z</time>
      </trkpt>
      <trkpt lat="48.24592" lon="-0.36668">
        <ele>260.72</ele>
        <time>2016-08-16T07:11:14Z</time>
      </trkpt>
      <trkpt lat="48.24583" lon="-0.36667">
        <ele>261.382</ele>
        <time>2016-08-16T07:11:17Z</time>
      </trkpt>
      <trkpt lat="48.24574" lon="-0.36668">
        <ele>262.365</ele>
        <time>2016-08-16T07:11:21Z</time>
      </trkpt>
      <trkpt lat="48.24547" lon="-0.36672">
        <ele>264.052</ele>
        <time>2016-08-16T07:11:31Z</time>
      </trkpt>
      <trkpt lat="48.24524" lon="-0.36677">
        <ele>265.865</ele>
        <time>2016-08-16T07:11:39Z</time>
      </trkpt>
      <trkpt lat="48.24497" lon="-0.36684">
        <ele>267.474</ele>
        <time>2016-08-16T07:11:48Z</time>
      </trkpt>
      <trkpt lat="48.24482" lon="-0.36685">
        <ele>268.192</ele>
        <time>2016-08-16T07:11:53Z</time>
      </trkpt>
      <trkpt lat="48.24459" lon="-0.36686">
        <ele>269.835</ele>
        <time>2016-08-16T07:12:01Z</time>
      </trkpt>
      <trkpt lat="48.24429" lon="-0.36681">
        <ele>272.448</ele>
        <time>2016-08-16T07:12:11Z</time>
      </trkpt>
      <trkpt lat="48.24414" lon="-0.3668">
        <ele>273.739</ele>
        <time>2016-08-16T07:12:16Z</time>
      </trkpt>
      <trkpt lat="48.24388" lon="-0.36679">
        <ele>274.999</ele>
        <time>2016-08-16T07:12:24Z</time>
      </trkpt>
      <trkpt lat="48.24372" lon="-0.36683">
        <ele>276.108</ele>
        <time>2016-08-16T07:12:30Z</time>
      </trkpt>
      <trkpt lat="48.24343" lon="-0.36685">
        <ele>278.078</ele>
        <time>2016-08-16T07:12:40Z</time>
      </trkpt>
      <trkpt lat="48.2432" lon="-0.36686">
        <ele>279.634</ele>
        <time>2016-08-16T07:12:47Z</time>
      </trkpt>
      <trkpt lat="48.24301" lon="-0.36679">
        <ele>280.807</ele>
        <time>2016-08-16T07:12:54Z</time>
      </trkpt>
      <trkpt lat="48.24291" lon="-0.36676">
        <ele>281.565</ele>
        <time>2016-08-16T07:12:58Z</time>
      </trkpt>
      <trkpt lat="48.24264" lon="-0.3667">
        <ele>282.483</ele>
        <time>2016-08-16T07:13:07Z</time>
      </trkpt>
      <trkpt lat="48.2424" lon="-0.36677">
        <ele>283.916</ele>
        <time>2016-08-16T07:13:15Z</time>
      </trkpt>
      <trkpt lat="48.24223" lon="-0.36683">
        <ele>284.865</ele>
        <time>2016-08-16T07:13:20Z</time>
      </trkpt>
      <trkpt lat="48.24205" lon="-0.36692">
        <ele>285.81</ele>
        <time>2016-08-16T07:13:26Z</time>
      </trkpt>
      <trkpt lat="48.24188" lon="-0.36708">
        <ele>286.395</ele>
        <time>2016-08-16T07:13:32Z</time>
      </trkpt>
      <trkpt lat="48.2417" lon="-0.36723">
        <ele>287.773</ele>
        <time>2016-08-16T07:13:39Z</time>
      </trkpt>
      <trkpt lat="48.24151" lon="-0.36737">
        <ele>288.985</ele>
        <time>2016-08-16T07:13:46Z</time>
      </trkpt>
      <trkpt lat="48.24131" lon="-0.36749">
        <ele>289.652</ele>
        <time>2016-08-16T07:13:52Z</time>
      </trkpt>
      <trkpt lat="48.24116" lon="-0.36758">
        <ele>290.092</ele>
        <time>2016-08-16T07:13:57Z</time>
      </trkpt>
      <trkpt lat="48.24092" lon="-0.36771">
        <ele>291.02</ele>
        <time>2016-08-16T07:14:07Z</time>
      </trkpt>
      <trkpt lat="48.24069" lon="-0.36783">
        <ele>291.691</ele>
        <time>2016-08-16T07:14:14Z</time>
      </trkpt>
      <trkpt lat="48.24047" lon="-0.36793">
        <ele>294.264</ele>
        <time>2016-08-16T07:14:21Z</time>
      </trkpt>
      <trkpt lat="48.24033" lon="-0.36803">
        <ele>295.181</ele>
        <time>2016-08-16T07:14:26Z</time>
      </trkpt>
      <trkpt lat="48.2402" lon="-0.36812">
        <ele>296.429</ele>
        <time>2016-08-16T07:14:31Z</time>
      </trkpt>
      <trkpt lat="48.23995" lon="-0.36828">
        <ele>298.569</ele>
        <time>2016-08-16T07:14:39Z</time>
      </trkpt>
      <trkpt lat="48.2398" lon="-0.36837">
        <ele>299.984</ele>
        <time>2016-08-16T07:14:44Z</time>
      </trkpt>
      <trkpt lat="48.23972" lon="-0.36842">
        <ele>301.018</ele>
        <time>2016-08-16T07:14:47Z</time>
      </trkpt>
      <trkpt lat="48.2395" lon="-0.36853">
        <ele>302.77</ele>
        <time>2016-08-16T07:14:55Z</time>
      </trkpt>
      <trkpt lat="48.23938" lon="-0.36862">
        <ele>303.749</ele>
        <time>2016-08-16T07:15:00Z</time>
      </trkpt>
      <trkpt lat="48.23916" lon="-0.36872">
        <ele>304.734</ele>
        <time>2016-08-16T07:15:07Z</time>
      </trkpt>
      <trkpt lat="48.23893" lon="-0.36882">
        <ele>305.746</ele>
        <time>2016-08-16T07:15:16Z</time>
      </trkpt>
      <trkpt lat="48.23878" lon="-0.36884">
        <ele>307.141</ele>
        <time>2016-08-16T07:15:28Z</time>
      </trkpt>
      <trkpt lat="48.23833" lon="-0.36871">
        <ele>308.533</ele>
        <time>2016-08-16T07:15:44Z</time>
      </trkpt>
      <trkpt lat="48.23815" lon="-0.36866">
        <ele>309.105</ele>
        <time>2016-08-16T07:15:51Z</time>
      </trkpt>
      <trkpt lat="48.23788" lon="-0.36859">
        <ele>310.15</ele>
        <time>2016-08-16T07:16:00Z</time>
      </trkpt>
      <trkpt lat="48.23767" lon="-0.36853">
        <ele>310.52</ele>
        <time>2016-08-16T07:16:08Z</time>
      </trkpt>
      <trkpt lat="48.23748" lon="-0.36846">
        <ele>310.899</ele>
        <time>2016-08-16T07:16:15Z</time>
      </trkpt>
      <trkpt lat="48.23727" lon="-0.36841">
        <ele>312.503</ele>
        <time>2016-08-16T07:16:25Z</time>
      </trkpt>
      <trkpt lat="48.2371" lon="-0.36834">
        <ele>314.403</ele>
        <time>2016-08-16T07:16:32Z</time>
      </trkpt>
      <trkpt lat="48.23688" lon="-0.36829">
        <ele>316.848</ele>
        <time>2016-08-16T07:16:41Z</time>
      </trkpt>
      <trkpt lat="48.23669" lon="-0.36822">
        <ele>318.502</ele>
        <time>2016-08-16T07:16:49Z</time>
      </trkpt>
      <trkpt lat="48.23654" lon="-0.36818">
        <ele>319.922</ele>
        <time>2016-08-16T07:16:55Z</time>
      </trkpt>
      <trkpt lat="48.23626" lon="-0.3681">
        <ele>320.775</ele>
        <time>2016-08-16T07:17:03Z</time>
      </trkpt>
      <trkpt lat="48.23617" lon="-0.36807">
        <ele>321.446</ele>
        <time>2016-08-16T07:17:06Z</time>
      </trkpt>
      <trkpt lat="48.23592" lon="-0.36798">
        <ele>323.363</ele>
        <time>2016-08-16T07:17:14Z</time>
      </trkpt>
      <trkpt lat="48.23567" lon="-0.36789">
        <ele>324.547</ele>
        <time>2016-08-16T07:17:21Z</time>
      </trkpt>
      <trkpt lat="48.23542" lon="-0.36782">
        <ele>326.145</ele>
        <time>2016-08-16T07:17:26Z</time>
      </trkpt>
      <trkpt lat="48.2353" lon="-0.36778">
        <ele>326.245</ele>
        <time>2016-08-16T07:17:29Z</time>
      </trkpt>
      <trkpt lat="48.2352" lon="-0.36777">
        <ele>326.275</ele>
        <time>2016-08-16T07:17:32Z</time>
      </trkpt>
      <trkpt lat="48.23515" lon="-0.36777">
        <ele>326.269</ele>
        <time>2016-08-16T07:17:34Z</time>
      </trkpt>
      <trkpt lat="48.23489" lon="-0.36768">
        <ele>323.571</ele>
        <time>2016-08-16T07:18:36Z</time>
      </trkpt>
      <trkpt lat="48.23468" lon="-0.36761">
        <ele>322.709</ele>
        <time>2016-08-16T07:18:43Z</time>
      </trkpt>
      <trkpt lat="48.23449" lon="-0.36754">
        <ele>322.357</ele>
        <time>2016-08-16T07:18:49Z</time>
      </trkpt>
      <trkpt lat="48.23422" lon="-0.36749">
        <ele>321.726</ele>
        <time>2016-08-16T07:18:56Z</time>
      </trkpt>
      <trkpt lat="48.23394" lon="-0.36753">
        <ele>322.26</ele>
        <time>2016-08-16T07:19:02Z</time>
      </trkpt>
      <trkpt lat="48.23364" lon="-0.36764">
        <ele>318.97</ele>
        <time>2016-08-16T07:19:08Z</time>
      </trkpt>
      <trkpt lat="48.23342" lon="-0.36774">
        <ele>318.551</ele>
        <time>2016-08-16T07:19:13Z</time>
      </trkpt>
      <trkpt lat="48.2332" lon="-0.36784">
        <ele>320.063</ele>
        <time>2016-08-16T07:19:19Z</time>
      </trkpt>
      <trkpt lat="48.23307" lon="-0.36793">
        <ele>320.331</ele>
        <time>2016-08-16T07:19:26Z</time>
      </trkpt>
      <trkpt lat="48.23307" lon="-0.36793">
        <ele>320.331</ele>
        <time>2016-08-16T07:19:34Z</time>
      </trkpt>
      <trkpt lat="48.23286" lon="-0.36792">
        <ele>322.257</ele>
        <time>2016-08-16T07:22:21Z</time>
      </trkpt>
      <trkpt lat="48.23273" lon="-0.36796">
        <ele>321.628</ele>
        <time>2016-08-16T07:22:26Z</time>
      </trkpt>
      <trkpt lat="48.2325" lon="-0.36807">
        <ele>320.407</ele>
        <time>2016-08-16T07:22:35Z</time>
      </trkpt>
      <trkpt lat="48.2323" lon="-0.36817">
        <ele>319.547</ele>
        <time>2016-08-16T07:22:41Z</time>
      </trkpt>
      <trkpt lat="48.23218" lon="-0.36821">
        <ele>319.286</ele>
        <time>2016-08-16T07:22:44Z</time>
      </trkpt>
      <trkpt lat="48.23193" lon="-0.36832">
        <ele>318.689</ele>
        <time>2016-08-16T07:22:50Z</time>
      </trkpt>
      <trkpt lat="48.23168" lon="-0.36836">
        <ele>319.285</ele>
        <time>2016-08-16T07:22:57Z</time>
      </trkpt>
      <trkpt lat="48.23142" lon="-0.36835">
        <ele>319.476</ele>
        <time>2016-08-16T07:23:03Z</time>
      </trkpt>
      <trkpt lat="48.23114" lon="-0.36832">
        <ele>320.013</ele>
        <time>2016-08-16T07:23:08Z</time>
      </trkpt>
      <trkpt lat="48.23076" lon="-0.36828">
        <ele>319.529</ele>
        <time>2016-08-16T07:23:14Z</time>
      </trkpt>
      <trkpt lat="48.23049" lon="-0.36827">
        <ele>318.897</ele>
        <time>2016-08-16T07:23:18Z</time>
      </trkpt>
      <trkpt lat="48.23014" lon="-0.36823">
        <ele>315.762</ele>
        <time>2016-08-16T07:23:23Z</time>
      </trkpt>
      <trkpt lat="48.22992" lon="-0.36821">
        <ele>314.267</ele>
        <time>2016-08-16T07:23:26Z</time>
      </trkpt>
      <trkpt lat="48.22942" lon="-0.36817">
        <ele>312.184</ele>
        <time>2016-08-16T07:23:32Z</time>
      </trkpt>
      <trkpt lat="48.229" lon="-0.36813">
        <ele>311.049</ele>
        <time>2016-08-16T07:23:37Z</time>
      </trkpt>
      <trkpt lat="48.22848" lon="-0.36808">
        <ele>310.241</ele>
        <time>2016-08-16T07:23:43Z</time>
      </trkpt>
      <trkpt lat="48.2281" lon="-0.36805">
        <ele>309.015</ele>
        <time>2016-08-16T07:23:47Z</time>
      </trkpt>
      <trkpt lat="48.22782" lon="-0.36802">
        <ele>307.285</ele>
        <time>2016-08-16T07:23:50Z</time>
      </trkpt>
      <trkpt lat="48.22745" lon="-0.36799">
        <ele>303.408</ele>
        <time>2016-08-16T07:23:54Z</time>
      </trkpt>
      <trkpt lat="48.22716" lon="-0.36796">
        <ele>301.3</ele>
        <time>2016-08-16T07:23:57Z</time>
      </trkpt>
      <trkpt lat="48.22686" lon="-0.36794">
        <ele>299.377</ele>
        <time>2016-08-16T07:24:00Z</time>
      </trkpt>
      <trkpt lat="48.22657" lon="-0.3679">
        <ele>298.381</ele>
        <time>2016-08-16T07:24:03Z</time>
      </trkpt>
      <trkpt lat="48.22628" lon="-0.36788">
        <ele>297.627</ele>
        <time>2016-08-16T07:24:06Z</time>
      </trkpt>
      <trkpt lat="48.22571" lon="-0.36781">
        <ele>295.998</ele>
        <time>2016-08-16T07:24:12Z</time>
      </trkpt>
      <trkpt lat="48.22544" lon="-0.36779">
        <ele>295.825</ele>
        <time>2016-08-16T07:24:15Z</time>
      </trkpt>
      <trkpt lat="48.22516" lon="-0.36777">
        <ele>295.459</ele>
        <time>2016-08-16T07:24:18Z</time>
      </trkpt>
      <trkpt lat="48.22489" lon="-0.3677">
        <ele>294.14</ele>
        <time>2016-08-16T07:24:21Z</time>
      </trkpt>
      <trkpt lat="48.2245" lon="-0.36752">
        <ele>292.548</ele>
        <time>2016-08-16T07:24:26Z</time>
      </trkpt>
      <trkpt lat="48.22411" lon="-0.36727">
        <ele>293.636</ele>
        <time>2016-08-16T07:24:32Z</time>
      </trkpt>
      <trkpt lat="48.2238" lon="-0.36703">
        <ele>293.904</ele>
        <time>2016-08-16T07:24:38Z</time>
      </trkpt>
      <trkpt lat="48.22352" lon="-0.36681">
        <ele>292.042</ele>
        <time>2016-08-16T07:24:44Z</time>
      </trkpt>
      <trkpt lat="48.22327" lon="-0.36662">
        <ele>291.165</ele>
        <time>2016-08-16T07:24:50Z</time>
      </trkpt>
      <trkpt lat="48.22314" lon="-0.36652">
        <ele>292.636</ele>
        <time>2016-08-16T07:24:53Z</time>
      </trkpt>
      <trkpt lat="48.223" lon="-0.36642">
        <ele>292.858</ele>
        <time>2016-08-16T07:24:56Z</time>
      </trkpt>
      <trkpt lat="48.22286" lon="-0.36631">
        <ele>292.135</ele>
        <time>2016-08-16T07:24:59Z</time>
      </trkpt>
      <trkpt lat="48.22269" lon="-0.36623">
        <ele>291.419</ele>
        <time>2016-08-16T07:25:02Z</time>
      </trkpt>
      <trkpt lat="48.22252" lon="-0.36617">
        <ele>290.793</ele>
        <time>2016-08-16T07:25:05Z</time>
      </trkpt>
      <trkpt lat="48.22235" lon="-0.36615">
        <ele>289.597</ele>
        <time>2016-08-16T07:25:08Z</time>
      </trkpt>
      <trkpt lat="48.22208" lon="-0.36615">
        <ele>289.349</ele>
        <time>2016-08-16T07:25:13Z</time>
      </trkpt>
      <trkpt lat="48.22178" lon="-0.36615">
        <ele>289.552</ele>
        <time>2016-08-16T07:25:19Z</time>
      </trkpt>
      <trkpt lat="48.2215" lon="-0.36616">
        <ele>289.699</ele>
        <time>2016-08-16T07:25:25Z</time>
      </trkpt>
      <trkpt lat="48.22129" lon="-0.36614">
        <ele>290.113</ele>
        <time>2016-08-16T07:25:31Z</time>
      </trkpt>
      <trkpt lat="48.22104" lon="-0.36611">
        <ele>290.715</ele>
        <time>2016-08-16T07:25:38Z</time>
      </trkpt>
      <trkpt lat="48.22068" lon="-0.36606">
        <ele>290.927</ele>
        <time>2016-08-16T07:25:46Z</time>
      </trkpt>
      <trkpt lat="48.22038" lon="-0.36598">
        <ele>292.587</ele>
        <time>2016-08-16T07:25:52Z</time>
      </trkpt>
      <trkpt lat="48.22014" lon="-0.36588">
        <ele>297.388</ele>
        <time>2016-08-16T07:25:58Z</time>
      </trkpt>
      <trkpt lat="48.21995" lon="-0.36576">
        <ele>299.656</ele>
        <time>2016-08-16T07:26:03Z</time>
      </trkpt>
      <trkpt lat="48.21976" lon="-0.36565">
        <ele>297.81</ele>
        <time>2016-08-16T07:26:08Z</time>
      </trkpt>
      <trkpt lat="48.21948" lon="-0.36541">
        <ele>290.489</ele>
        <time>2016-08-16T07:26:15Z</time>
      </trkpt>
      <trkpt lat="48.21916" lon="-0.36508">
        <ele>289.047</ele>
        <time>2016-08-16T07:26:21Z</time>
      </trkpt>
      <trkpt lat="48.21887" lon="-0.36478">
        <ele>289.78</ele>
        <time>2016-08-16T07:26:26Z</time>
      </trkpt>
      <trkpt lat="48.21866" lon="-0.36454">
        <ele>286.479</ele>
        <time>2016-08-16T07:26:30Z</time>
      </trkpt>
      <trkpt lat="48.21849" lon="-0.36433">
        <ele>283.627</ele>
        <time>2016-08-16T07:26:33Z</time>
      </trkpt>
      <trkpt lat="48.21813" lon="-0.36393">
        <ele>279.932</ele>
        <time>2016-08-16T07:26:39Z</time>
      </trkpt>
      <trkpt lat="48.21785" lon="-0.36362">
        <ele>278.894</ele>
        <time>2016-08-16T07:26:44Z</time>
      </trkpt>
      <trkpt lat="48.21753" lon="-0.36331">
        <ele>279.662</ele>
        <time>2016-08-16T07:26:49Z</time>
      </trkpt>
      <trkpt lat="48.21717" lon="-0.36311">
        <ele>282.119</ele>
        <time>2016-08-16T07:26:55Z</time>
      </trkpt>
      <trkpt lat="48.21683" lon="-0.36309">
        <ele>283.833</ele>
        <time>2016-08-16T07:27:00Z</time>
      </trkpt>
      <trkpt lat="48.21663" lon="-0.36313">
        <ele>283.062</ele>
        <time>2016-08-16T07:27:03Z</time>
      </trkpt>
      <trkpt lat="48.21639" lon="-0.3632">
        <ele>280.376</ele>
        <time>2016-08-16T07:27:07Z</time>
      </trkpt>
      <trkpt lat="48.21608" lon="-0.36329">
        <ele>276.344</ele>
        <time>2016-08-16T07:27:12Z</time>
      </trkpt>
      <trkpt lat="48.21566" lon="-0.36339">
        <ele>275.271</ele>
        <time>2016-08-16T07:27:18Z</time>
      </trkpt>
      <trkpt lat="48.21543" lon="-0.36344">
        <ele>276.361</ele>
        <time>2016-08-16T07:27:21Z</time>
      </trkpt>
      <trkpt lat="48.21502" lon="-0.36354">
        <ele>278.967</ele>
        <time>2016-08-16T07:27:26Z</time>
      </trkpt>
      <trkpt lat="48.21477" lon="-0.3636">
        <ele>278.293</ele>
        <time>2016-08-16T07:27:29Z</time>
      </trkpt>
      <trkpt lat="48.2145" lon="-0.36366">
        <ele>278.116</ele>
        <time>2016-08-16T07:27:32Z</time>
      </trkpt>
      <trkpt lat="48.21425" lon="-0.36371">
        <ele>279.797</ele>
        <time>2016-08-16T07:27:35Z</time>
      </trkpt>
      <trkpt lat="48.21373" lon="-0.36382">
        <ele>279.731</ele>
        <time>2016-08-16T07:27:41Z</time>
      </trkpt>
      <trkpt lat="48.21334" lon="-0.3639">
        <ele>274.785</ele>
        <time>2016-08-16T07:27:46Z</time>
      </trkpt>
      <trkpt lat="48.2129" lon="-0.364">
        <ele>267.309</ele>
        <time>2016-08-16T07:27:52Z</time>
      </trkpt>
      <trkpt lat="48.21265" lon="-0.364">
        <ele>264.47</ele>
        <time>2016-08-16T07:27:55Z</time>
      </trkpt>
      <trkpt lat="48.21226" lon="-0.36396">
        <ele>261.828</ele>
        <time>2016-08-16T07:28:00Z</time>
      </trkpt>
      <trkpt lat="48.21185" lon="-0.36395">
        <ele>260.812</ele>
        <time>2016-08-16T07:28:05Z</time>
      </trkpt>
      <trkpt lat="48.21123" lon="-0.364">
        <ele>258.256</ele>
        <time>2016-08-16T07:28:12Z</time>
      </trkpt>
      <trkpt lat="48.21069" lon="-0.3641">
        <ele>258.26</ele>
        <time>2016-08-16T07:28:18Z</time>
      </trkpt>
      <trkpt lat="48.21016" lon="-0.3642">
        <ele>259.137</ele>
        <time>2016-08-16T07:28:24Z</time>
      </trkpt>
      <trkpt lat="48.20973" lon="-0.36432">
        <ele>259.427</ele>
        <time>2016-08-16T07:28:29Z</time>
      </trkpt>
      <trkpt lat="48.20923" lon="-0.36458">
        <ele>255.871</ele>
        <time>2016-08-16T07:28:35Z</time>
      </trkpt>
      <trkpt lat="48.20901" lon="-0.36477">
        <ele>254.105</ele>
        <time>2016-08-16T07:28:38Z</time>
      </trkpt>
      <trkpt lat="48.2088" lon="-0.36503">
        <ele>249.858</ele>
        <time>2016-08-16T07:28:41Z</time>
      </trkpt>
      <trkpt lat="48.20829" lon="-0.36582">
        <ele>241.232</ele>
        <time>2016-08-16T07:28:49Z</time>
      </trkpt>
      <trkpt lat="48.20788" lon="-0.36643">
        <ele>240.169</ele>
        <time>2016-08-16T07:28:55Z</time>
      </trkpt>
      <trkpt lat="48.20744" lon="-0.36683">
        <ele>238.405</ele>
        <time>2016-08-16T07:29:00Z</time>
      </trkpt>
      <trkpt lat="48.20699" lon="-0.3671">
        <ele>236.668</ele>
        <time>2016-08-16T07:29:05Z</time>
      </trkpt>
      <trkpt lat="48.2067" lon="-0.36726">
        <ele>234.518</ele>
        <time>2016-08-16T07:29:08Z</time>
      </trkpt>
      <trkpt lat="48.2061" lon="-0.36758">
        <ele>230.409</ele>
        <time>2016-08-16T07:29:14Z</time>
      </trkpt>
      <trkpt lat="48.20562" lon="-0.36783">
        <ele>224.943</ele>
        <time>2016-08-16T07:29:19Z</time>
      </trkpt>
      <trkpt lat="48.20508" lon="-0.36814">
        <ele>222.626</ele>
        <time>2016-08-16T07:29:25Z</time>
      </trkpt>
      <trkpt lat="48.20454" lon="-0.36843">
        <ele>220.261</ele>
        <time>2016-08-16T07:29:31Z</time>
      </trkpt>
      <trkpt lat="48.20403" lon="-0.3687">
        <ele>217.104</ele>
        <time>2016-08-16T07:29:37Z</time>
      </trkpt>
      <trkpt lat="48.20377" lon="-0.36885">
        <ele>216.19</ele>
        <time>2016-08-16T07:29:40Z</time>
      </trkpt>
      <trkpt lat="48.20352" lon="-0.369">
        <ele>214.814</ele>
        <time>2016-08-16T07:29:43Z</time>
      </trkpt>
      <trkpt lat="48.203" lon="-0.3693">
        <ele>212.395</ele>
        <time>2016-08-16T07:29:49Z</time>
      </trkpt>
      <trkpt lat="48.20245" lon="-0.36961">
        <ele>209.86</ele>
        <time>2016-08-16T07:29:55Z</time>
      </trkpt>
      <trkpt lat="48.20216" lon="-0.36978">
        <ele>208.218</ele>
        <time>2016-08-16T07:29:58Z</time>
      </trkpt>
      <trkpt lat="48.20177" lon="-0.37">
        <ele>205.071</ele>
        <time>2016-08-16T07:30:02Z</time>
      </trkpt>
      <trkpt lat="48.20119" lon="-0.37031">
        <ele>200.743</ele>
        <time>2016-08-16T07:30:08Z</time>
      </trkpt>
      <trkpt lat="48.20074" lon="-0.37055">
        <ele>195.562</ele>
        <time>2016-08-16T07:30:13Z</time>
      </trkpt>
      <trkpt lat="48.20015" lon="-0.37089">
        <ele>191.692</ele>
        <time>2016-08-16T07:30:20Z</time>
      </trkpt>
      <trkpt lat="48.19972" lon="-0.37114">
        <ele>190.742</ele>
        <time>2016-08-16T07:30:25Z</time>
      </trkpt>
      <trkpt lat="48.1992" lon="-0.37151">
        <ele>188.423</ele>
        <time>2016-08-16T07:30:31Z</time>
      </trkpt>
      <trkpt lat="48.19898" lon="-0.37178">
        <ele>186.721</ele>
        <time>2016-08-16T07:30:34Z</time>
      </trkpt>
      <trkpt lat="48.19858" lon="-0.37245">
        <ele>185.202</ele>
        <time>2016-08-16T07:30:41Z</time>
      </trkpt>
      <trkpt lat="48.19831" lon="-0.37293">
        <ele>185.286</ele>
        <time>2016-08-16T07:30:47Z</time>
      </trkpt>
      <trkpt lat="48.19811" lon="-0.37328">
        <ele>181.482</ele>
        <time>2016-08-16T07:30:52Z</time>
      </trkpt>
      <trkpt lat="48.19785" lon="-0.3737">
        <ele>180.049</ele>
        <time>2016-08-16T07:31:00Z</time>
      </trkpt>
      <trkpt lat="48.1977" lon="-0.37389">
        <ele>182.201</ele>
        <time>2016-08-16T07:31:05Z</time>
      </trkpt>
      <trkpt lat="48.19738" lon="-0.374">
        <ele>180.777</ele>
        <time>2016-08-16T07:31:12Z</time>
      </trkpt>
      <trkpt lat="48.1972" lon="-0.37412">
        <ele>182.533</ele>
        <time>2016-08-16T07:31:17Z</time>
      </trkpt>
      <trkpt lat="48.19696" lon="-0.37422">
        <ele>184.157</ele>
        <time>2016-08-16T07:31:23Z</time>
      </trkpt>
      <trkpt lat="48.19667" lon="-0.37432">
        <ele>185.01</ele>
        <time>2016-08-16T07:31:29Z</time>
      </trkpt>
      <trkpt lat="48.19634" lon="-0.37446">
        <ele>182.318</ele>
        <time>2016-08-16T07:31:35Z</time>
      </trkpt>
      <trkpt lat="48.19605" lon="-0.37468">
        <ele>181.073</ele>
        <time>2016-08-16T07:31:41Z</time>
      </trkpt>
      <trkpt lat="48.19579" lon="-0.37486">
        <ele>181.632</ele>
        <time>2016-08-16T07:31:46Z</time>
      </trkpt>
      <trkpt lat="48.19552" lon="-0.37506">
        <ele>178.234</ele>
        <time>2016-08-16T07:31:52Z</time>
      </trkpt>
      <trkpt lat="48.19529" lon="-0.37523">
        <ele>174.986</ele>
        <time>2016-08-16T07:31:57Z</time>
      </trkpt>
      <trkpt lat="48.1951" lon="-0.37536">
        <ele>172.476</ele>
        <time>2016-08-16T07:32:01Z</time>
      </trkpt>
      <trkpt lat="48.19496" lon="-0.37547">
        <ele>171.607</ele>
        <time>2016-08-16T07:32:04Z</time>
      </trkpt>
      <trkpt lat="48.19483" lon="-0.37558">
        <ele>173.173</ele>
        <time>2016-08-16T07:32:07Z</time>
      </trkpt>
      <trkpt lat="48.1946" lon="-0.37578">
        <ele>175.62</ele>
        <time>2016-08-16T07:32:12Z</time>
      </trkpt>
      <trkpt lat="48.19428" lon="-0.37597">
        <ele>171.14</ele>
        <time>2016-08-16T07:32:18Z</time>
      </trkpt>
      <trkpt lat="48.19399" lon="-0.37615">
        <ele>172.99</ele>
        <time>2016-08-16T07:32:24Z</time>
      </trkpt>
      <trkpt lat="48.19369" lon="-0.37634">
        <ele>173.898</ele>
        <time>2016-08-16T07:32:30Z</time>
      </trkpt>
      <trkpt lat="48.19347" lon="-0.37651">
        <ele>173.917</ele>
        <time>2016-08-16T07:32:35Z</time>
      </trkpt>
      <trkpt lat="48.1933" lon="-0.37664">
        <ele>174.086</ele>
        <time>2016-08-16T07:32:39Z</time>
      </trkpt>
      <trkpt lat="48.19302" lon="-0.37681">
        <ele>169.649</ele>
        <time>2016-08-16T07:32:45Z</time>
      </trkpt>
      <trkpt lat="48.19286" lon="-0.37698">
        <ele>168.69</ele>
        <time>2016-08-16T07:32:52Z</time>
      </trkpt>
      <trkpt lat="48.19283" lon="-0.37718">
        <ele>167.947</ele>
        <time>2016-08-16T07:32:58Z</time>
      </trkpt>
      <trkpt lat="48.19262" lon="-0.37727">
        <ele>166.814</ele>
        <time>2016-08-16T07:37:16Z</time>
      </trkpt>
      <trkpt lat="48.19239" lon="-0.37744">
        <ele>165.884</ele>
        <time>2016-08-16T07:37:25Z</time>
      </trkpt>
      <trkpt lat="48.19221" lon="-0.37759">
        <ele>165.259</ele>
        <time>2016-08-16T07:37:31Z</time>
      </trkpt>
      <trkpt lat="48.19202" lon="-0.37774">
        <ele>164.288</ele>
        <time>2016-08-16T07:37:38Z</time>
      </trkpt>
      <trkpt lat="48.19182" lon="-0.37791">
        <ele>163.575</ele>
        <time>2016-08-16T07:37:45Z</time>
      </trkpt>
      <trkpt lat="48.19191" lon="-0.37826">
        <ele>162.852</ele>
        <time>2016-08-16T07:37:52Z</time>
      </trkpt>
      <trkpt lat="48.19203" lon="-0.37853">
        <ele>164.254</ele>
        <time>2016-08-16T07:37:57Z</time>
      </trkpt>
      <trkpt lat="48.19208" lon="-0.37879">
        <ele>164.566</ele>
        <time>2016-08-16T07:38:02Z</time>
      </trkpt>
      <trkpt lat="48.19212" lon="-0.37907">
        <ele>164.341</ele>
        <time>2016-08-16T07:38:08Z</time>
      </trkpt>
      <trkpt lat="48.19216" lon="-0.37936">
        <ele>164.272</ele>
        <time>2016-08-16T07:38:14Z</time>
      </trkpt>
      <trkpt lat="48.19218" lon="-0.37968">
        <ele>163.886</ele>
        <time>2016-08-16T07:38:20Z</time>
      </trkpt>
      <trkpt lat="48.19223" lon="-0.3801">
        <ele>163.625</ele>
        <time>2016-08-16T07:38:28Z</time>
      </trkpt>
      <trkpt lat="48.19206" lon="-0.38024">
        <ele>163.582</ele>
        <time>2016-08-16T07:38:34Z</time>
      </trkpt>
      <trkpt lat="48.19186" lon="-0.38028">
        <ele>163.964</ele>
        <time>2016-08-16T07:38:40Z</time>
      </trkpt>
      <trkpt lat="48.1916" lon="-0.38028">
        <ele>163.855</ele>
        <time>2016-08-16T07:38:47Z</time>
      </trkpt>
      <trkpt lat="48.19143" lon="-0.38036">
        <ele>163.593</ele>
        <time>2016-08-16T07:38:52Z</time>
      </trkpt>
      <trkpt lat="48.19125" lon="-0.38048">
        <ele>163.818</ele>
        <time>2016-08-16T07:38:57Z</time>
      </trkpt>
      <trkpt lat="48.19114" lon="-0.38055">
        <ele>163.976</ele>
        <time>2016-08-16T07:39:00Z</time>
      </trkpt>
      <trkpt lat="48.19098" lon="-0.38063">
        <ele>163.61</ele>
        <time>2016-08-16T07:39:05Z</time>
      </trkpt>
      <trkpt lat="48.19074" lon="-0.38071">
        <ele>163.383</ele>
        <time>2016-08-16T07:39:12Z</time>
      </trkpt>
      <trkpt lat="48.19049" lon="-0.38079">
        <ele>163.88</ele>
        <time>2016-08-16T07:39:19Z</time>
      </trkpt>
      <trkpt lat="48.19032" lon="-0.38086">
        <ele>164.542</ele>
        <time>2016-08-16T07:39:24Z</time>
      </trkpt>
      <trkpt lat="48.19015" lon="-0.38075">
        <ele>165.334</ele>
        <time>2016-08-16T07:39:30Z</time>
      </trkpt>
      <trkpt lat="48.19001" lon="-0.38052">
        <ele>166.301</ele>
        <time>2016-08-16T07:39:37Z</time>
      </trkpt>
      <trkpt lat="48.1899" lon="-0.3803">
        <ele>166.46</ele>
        <time>2016-08-16T07:39:43Z</time>
      </trkpt>
      <trkpt lat="48.18979" lon="-0.38006">
        <ele>166.533</ele>
        <time>2016-08-16T07:39:50Z</time>
      </trkpt>
      <trkpt lat="48.18965" lon="-0.37973">
        <ele>167.21</ele>
        <time>2016-08-16T07:39:57Z</time>
      </trkpt>
      <trkpt lat="48.18953" lon="-0.37955">
        <ele>167.654</ele>
        <time>2016-08-16T07:40:04Z</time>
      </trkpt>
      <trkpt lat="48.18919" lon="-0.37971">
        <ele>168.736</ele>
        <time>2016-08-16T07:40:13Z</time>
      </trkpt>
      <trkpt lat="48.18896" lon="-0.37986">
        <ele>169.093</ele>
        <time>2016-08-16T07:40:19Z</time>
      </trkpt>
      <trkpt lat="48.18877" lon="-0.37999">
        <ele>170.009</ele>
        <time>2016-08-16T07:40:24Z</time>
      </trkpt>
      <trkpt lat="48.18852" lon="-0.38016">
        <ele>170.138</ele>
        <time>2016-08-16T07:40:30Z</time>
      </trkpt>
      <trkpt lat="48.18828" lon="-0.38032">
        <ele>170.018</ele>
        <time>2016-08-16T07:40:36Z</time>
      </trkpt>
      <trkpt lat="48.18806" lon="-0.38048">
        <ele>168.481</ele>
        <time>2016-08-16T07:40:41Z</time>
      </trkpt>
      <trkpt lat="48.18784" lon="-0.38065">
        <ele>168.752</ele>
        <time>2016-08-16T07:40:47Z</time>
      </trkpt>
      <trkpt lat="48.18769" lon="-0.38077">
        <ele>168.055</ele>
        <time>2016-08-16T07:40:52Z</time>
      </trkpt>
      <trkpt lat="48.18749" lon="-0.3809">
        <ele>165.52</ele>
        <time>2016-08-16T07:40:59Z</time>
      </trkpt>
      <trkpt lat="48.18719" lon="-0.38111">
        <ele>162.161</ele>
        <time>2016-08-16T07:41:06Z</time>
      </trkpt>
      <trkpt lat="48.18704" lon="-0.38122">
        <ele>160.706</ele>
        <time>2016-08-16T07:41:09Z</time>
      </trkpt>
      <trkpt lat="48.18678" lon="-0.38143">
        <ele>156.599</ele>
        <time>2016-08-16T07:41:15Z</time>
      </trkpt>
      <trkpt lat="48.18681" lon="-0.38172">
        <ele>156.408</ele>
        <time>2016-08-16T07:41:20Z</time>
      </trkpt>
      <trkpt lat="48.18691" lon="-0.38207">
        <ele>156.359</ele>
        <time>2016-08-16T07:41:26Z</time>
      </trkpt>
      <trkpt lat="48.18696" lon="-0.3823">
        <ele>158.257</ele>
        <time>2016-08-16T07:41:31Z</time>
      </trkpt>
      <trkpt lat="48.18699" lon="-0.38248">
        <ele>159.097</ele>
        <time>2016-08-16T07:41:34Z</time>
      </trkpt>
      <trkpt lat="48.18701" lon="-0.38267">
        <ele>159.094</ele>
        <time>2016-08-16T07:41:37Z</time>
      </trkpt>
      <trkpt lat="48.18703" lon="-0.38286">
        <ele>158.357</ele>
        <time>2016-08-16T07:41:40Z</time>
      </trkpt>
      <trkpt lat="48.18707" lon="-0.38324">
        <ele>157.327</ele>
        <time>2016-08-16T07:41:46Z</time>
      </trkpt>
      <trkpt lat="48.187" lon="-0.3836">
        <ele>157.51</ele>
        <time>2016-08-16T07:41:52Z</time>
      </trkpt>
      <trkpt lat="48.18685" lon="-0.38389">
        <ele>152.257</ele>
        <time>2016-08-16T07:41:58Z</time>
      </trkpt>
      <trkpt lat="48.18669" lon="-0.38416">
        <ele>152.879</ele>
        <time>2016-08-16T07:42:04Z</time>
      </trkpt>
      <trkpt lat="48.18667" lon="-0.38463">
        <ele>150.656</ele>
        <time>2016-08-16T07:42:13Z</time>
      </trkpt>
      <trkpt lat="48.18674" lon="-0.38503">
        <ele>153.175</ele>
        <time>2016-08-16T07:42:19Z</time>
      </trkpt>
      <trkpt lat="48.18678" lon="-0.38546">
        <ele>152.776</ele>
        <time>2016-08-16T07:42:26Z</time>
      </trkpt>
      <trkpt lat="48.18678" lon="-0.38564">
        <ele>152.241</ele>
        <time>2016-08-16T07:42:29Z</time>
      </trkpt>
      <trkpt lat="48.18678" lon="-0.38583">
        <ele>150.79</ele>
        <time>2016-08-16T07:42:32Z</time>
      </trkpt>
      <trkpt lat="48.18678" lon="-0.38602">
        <ele>150.674</ele>
        <time>2016-08-16T07:42:35Z</time>
      </trkpt>
      <trkpt lat="48.18678" lon="-0.38621">
        <ele>153.383</ele>
        <time>2016-08-16T07:42:38Z</time>
      </trkpt>
      <trkpt lat="48.18676" lon="-0.38646">
        <ele>156.591</ele>
        <time>2016-08-16T07:42:42Z</time>
      </trkpt>
      <trkpt lat="48.18656" lon="-0.38668">
        <ele>155.818</ele>
        <time>2016-08-16T07:42:48Z</time>
      </trkpt>
      <trkpt lat="48.18633" lon="-0.38686">
        <ele>153.48</ele>
        <time>2016-08-16T07:42:54Z</time>
      </trkpt>
      <trkpt lat="48.18612" lon="-0.38704">
        <ele>152.407</ele>
        <time>2016-08-16T07:43:00Z</time>
      </trkpt>
      <trkpt lat="48.186" lon="-0.38713">
        <ele>151.586</ele>
        <time>2016-08-16T07:43:03Z</time>
      </trkpt>
      <trkpt lat="48.18583" lon="-0.38727">
        <ele>150.994</ele>
        <time>2016-08-16T07:43:08Z</time>
      </trkpt>
      <trkpt lat="48.18565" lon="-0.38741">
        <ele>150.216</ele>
        <time>2016-08-16T07:43:13Z</time>
      </trkpt>
      <trkpt lat="48.18554" lon="-0.38751">
        <ele>149.81</ele>
        <time>2016-08-16T07:43:16Z</time>
      </trkpt>
      <trkpt lat="48.18529" lon="-0.38772">
        <ele>148.917</ele>
        <time>2016-08-16T07:43:23Z</time>
      </trkpt>
      <trkpt lat="48.18508" lon="-0.3879">
        <ele>147.865</ele>
        <time>2016-08-16T07:43:29Z</time>
      </trkpt>
      <trkpt lat="48.18498" lon="-0.38799">
        <ele>148.041</ele>
        <time>2016-08-16T07:43:32Z</time>
      </trkpt>
      <trkpt lat="48.18474" lon="-0.3882">
        <ele>147.816</ele>
        <time>2016-08-16T07:43:39Z</time>
      </trkpt>
      <trkpt lat="48.18456" lon="-0.38835">
        <ele>146.919</ele>
        <time>2016-08-16T07:43:44Z</time>
      </trkpt>
      <trkpt lat="48.18438" lon="-0.38852">
        <ele>146.841</ele>
        <time>2016-08-16T07:43:50Z</time>
      </trkpt>
      <trkpt lat="48.18427" lon="-0.38859">
        <ele>146.82</ele>
        <time>2016-08-16T07:43:53Z</time>
      </trkpt>
      <trkpt lat="48.18407" lon="-0.38877">
        <ele>147.035</ele>
        <time>2016-08-16T07:43:59Z</time>
      </trkpt>
      <trkpt lat="48.18389" lon="-0.38892">
        <ele>147.479</ele>
        <time>2016-08-16T07:44:04Z</time>
      </trkpt>
      <trkpt lat="48.18372" lon="-0.38906">
        <ele>147.528</ele>
        <time>2016-08-16T07:44:09Z</time>
      </trkpt>
      <trkpt lat="48.18351" lon="-0.38922">
        <ele>146.428</ele>
        <time>2016-08-16T07:44:15Z</time>
      </trkpt>
      <trkpt lat="48.18333" lon="-0.38936">
        <ele>147.962</ele>
        <time>2016-08-16T07:44:20Z</time>
      </trkpt>
      <trkpt lat="48.18322" lon="-0.38943">
        <ele>148.393</ele>
        <time>2016-08-16T07:44:23Z</time>
      </trkpt>
      <trkpt lat="48.18312" lon="-0.3895">
        <ele>151.982</ele>
        <time>2016-08-16T07:44:26Z</time>
      </trkpt>
      <trkpt lat="48.18287" lon="-0.3897">
        <ele>152.495</ele>
        <time>2016-08-16T07:44:34Z</time>
      </trkpt>
      <trkpt lat="48.18273" lon="-0.38981">
        <ele>152.025</ele>
        <time>2016-08-16T07:44:40Z</time>
      </trkpt>
      <trkpt lat="48.18258" lon="-0.38962">
        <ele>152.176</ele>
        <time>2016-08-16T07:44:49Z</time>
      </trkpt>
      <trkpt lat="48.18251" lon="-0.38927">
        <ele>153.261</ele>
        <time>2016-08-16T07:44:57Z</time>
      </trkpt>
      <trkpt lat="48.18242" lon="-0.38896">
        <ele>153.888</ele>
        <time>2016-08-16T07:45:05Z</time>
      </trkpt>
      <trkpt lat="48.18224" lon="-0.38863">
        <ele>154.393</ele>
        <time>2016-08-16T07:45:14Z</time>
      </trkpt>
      <trkpt lat="48.1821" lon="-0.38846">
        <ele>154.488</ele>
        <time>2016-08-16T07:45:20Z</time>
      </trkpt>
      <trkpt lat="48.18196" lon="-0.3884">
        <ele>155.069</ele>
        <time>2016-08-16T07:45:28Z</time>
      </trkpt>
      <trkpt lat="48.18182" lon="-0.38856">
        <ele>155.248</ele>
        <time>2016-08-16T07:45:35Z</time>
      </trkpt>
      <trkpt lat="48.18173" lon="-0.38866">
        <ele>155.555</ele>
        <time>2016-08-16T07:45:40Z</time>
      </trkpt>
      <trkpt lat="48.18152" lon="-0.38887">
        <ele>154.734</ele>
        <time>2016-08-16T07:45:49Z</time>
      </trkpt>
      <trkpt lat="48.18133" lon="-0.38904">
        <ele>154.249</ele>
        <time>2016-08-16T07:45:56Z</time>
      </trkpt>
      <trkpt lat="48.18106" lon="-0.3893">
        <ele>151.837</ele>
        <time>2016-08-16T07:46:03Z</time>
      </trkpt>
      <trkpt lat="48.18095" lon="-0.38939">
        <ele>151.11</ele>
        <time>2016-08-16T07:46:06Z</time>
      </trkpt>
      <trkpt lat="48.18079" lon="-0.38952">
        <ele>151.057</ele>
        <time>2016-08-16T07:46:11Z</time>
      </trkpt>
      <trkpt lat="48.1808" lon="-0.38982">
        <ele>151.042</ele>
        <time>2016-08-16T07:46:17Z</time>
      </trkpt>
      <trkpt lat="48.1809" lon="-0.39015">
        <ele>151.15</ele>
        <time>2016-08-16T07:46:24Z</time>
      </trkpt>
      <trkpt lat="48.1809" lon="-0.39054">
        <ele>152.602</ele>
        <time>2016-08-16T07:46:32Z</time>
      </trkpt>
      <trkpt lat="48.1806" lon="-0.39072">
        <ele>156.306</ele>
        <time>2016-08-16T07:46:39Z</time>
      </trkpt>
      <trkpt lat="48.1804" lon="-0.39084">
        <ele>156.873</ele>
        <time>2016-08-16T07:46:44Z</time>
      </trkpt>
      <trkpt lat="48.18013" lon="-0.39103">
        <ele>155.115</ele>
        <time>2016-08-16T07:46:51Z</time>
      </trkpt>
      <trkpt lat="48.18008" lon="-0.39128">
        <ele>155.161</ele>
        <time>2016-08-16T07:46:56Z</time>
      </trkpt>
      <trkpt lat="48.18007" lon="-0.39145">
        <ele>153.847</ele>
        <time>2016-08-16T07:46:59Z</time>
      </trkpt>
      <trkpt lat="48.18004" lon="-0.39181">
        <ele>151.803</ele>
        <time>2016-08-16T07:47:05Z</time>
      </trkpt>
      <trkpt lat="48.17995" lon="-0.39202">
        <ele>151.948</ele>
        <time>2016-08-16T07:47:09Z</time>
      </trkpt>
      <trkpt lat="48.1798" lon="-0.39227">
        <ele>147.984</ele>
        <time>2016-08-16T07:47:15Z</time>
      </trkpt>
      <trkpt lat="48.17964" lon="-0.39254">
        <ele>145.905</ele>
        <time>2016-08-16T07:47:21Z</time>
      </trkpt>
      <trkpt lat="48.17947" lon="-0.39284">
        <ele>143.669</ele>
        <time>2016-08-16T07:47:28Z</time>
      </trkpt>
      <trkpt lat="48.17928" lon="-0.3929">
        <ele>143.39</ele>
        <time>2016-08-16T07:47:35Z</time>
      </trkpt>
      <trkpt lat="48.17909" lon="-0.39279">
        <ele>143.077</ele>
        <time>2016-08-16T07:47:41Z</time>
      </trkpt>
      <trkpt lat="48.17891" lon="-0.39268">
        <ele>142.951</ele>
        <time>2016-08-16T07:47:47Z</time>
      </trkpt>
      <trkpt lat="48.17874" lon="-0.39281">
        <ele>142.602</ele>
        <time>2016-08-16T07:47:54Z</time>
      </trkpt>
      <trkpt lat="48.17863" lon="-0.39304">
        <ele>142.823</ele>
        <time>2016-08-16T07:48:00Z</time>
      </trkpt>
      <trkpt lat="48.1785" lon="-0.39332">
        <ele>143.689</ele>
        <time>2016-08-16T07:48:08Z</time>
      </trkpt>
      <trkpt lat="48.1784" lon="-0.39355">
        <ele>144.253</ele>
        <time>2016-08-16T07:48:15Z</time>
      </trkpt>
      <trkpt lat="48.17808" lon="-0.39344">
        <ele>145.25</ele>
        <time>2016-08-16T07:48:26Z</time>
      </trkpt>
      <trkpt lat="48.17794" lon="-0.39366">
        <ele>145.649</ele>
        <time>2016-08-16T07:48:34Z</time>
      </trkpt>
      <trkpt lat="48.17791" lon="-0.394">
        <ele>145.807</ele>
        <time>2016-08-16T07:48:41Z</time>
      </trkpt>
      <trkpt lat="48.17792" lon="-0.39422">
        <ele>145.766</ele>
        <time>2016-08-16T07:48:46Z</time>
      </trkpt>
      <trkpt lat="48.17798" lon="-0.3946">
        <ele>145.513</ele>
        <time>2016-08-16T07:48:53Z</time>
      </trkpt>
      <trkpt lat="48.17801" lon="-0.39474">
        <ele>145.41</ele>
        <time>2016-08-16T07:48:56Z</time>
      </trkpt>
      <trkpt lat="48.17805" lon="-0.39495">
        <ele>145.352</ele>
        <time>2016-08-16T07:49:00Z</time>
      </trkpt>
      <trkpt lat="48.17811" lon="-0.39531">
        <ele>145.85</ele>
        <time>2016-08-16T07:49:08Z</time>
      </trkpt>
      <trkpt lat="48.17817" lon="-0.39563">
        <ele>146.362</ele>
        <time>2016-08-16T07:49:15Z</time>
      </trkpt>
      <trkpt lat="48.17822" lon="-0.39579">
        <ele>146.349</ele>
        <time>2016-08-16T07:49:18Z</time>
      </trkpt>
      <trkpt lat="48.17832" lon="-0.3961">
        <ele>146.379</ele>
        <time>2016-08-16T07:49:25Z</time>
      </trkpt>
      <trkpt lat="48.1784" lon="-0.39633">
        <ele>146.746</ele>
        <time>2016-08-16T07:49:31Z</time>
      </trkpt>
      <trkpt lat="48.1785" lon="-0.39671">
        <ele>146.756</ele>
        <time>2016-08-16T07:49:38Z</time>
      </trkpt>
      <trkpt lat="48.17856" lon="-0.39703">
        <ele>146.8</ele>
        <time>2016-08-16T07:49:44Z</time>
      </trkpt>
      <trkpt lat="48.1786" lon="-0.39739">
        <ele>147.518</ele>
        <time>2016-08-16T07:49:51Z</time>
      </trkpt>
      <trkpt lat="48.17862" lon="-0.3975">
        <ele>148.262</ele>
        <time>2016-08-16T07:49:59Z</time>
      </trkpt>
      <trkpt lat="48.17851" lon="-0.39796">
        <ele>149.853</ele>
        <time>2016-08-16T07:51:14Z</time>
      </trkpt>
      <trkpt lat="48.17838" lon="-0.39807">
        <ele>149.056</ele>
        <time>2016-08-16T07:51:19Z</time>
      </trkpt>
      <trkpt lat="48.17828" lon="-0.39821">
        <ele>148.443</ele>
        <time>2016-08-16T07:51:24Z</time>
      </trkpt>
      <trkpt lat="48.17821" lon="-0.39862">
        <ele>147.641</ele>
        <time>2016-08-16T07:51:34Z</time>
      </trkpt>
      <trkpt lat="48.17828" lon="-0.399">
        <ele>147.362</ele>
        <time>2016-08-16T07:51:42Z</time>
      </trkpt>
      <trkpt lat="48.1784" lon="-0.39915">
        <ele>147.493</ele>
        <time>2016-08-16T07:51:47Z</time>
      </trkpt>
      <trkpt lat="48.1785" lon="-0.39945">
        <ele>147.443</ele>
        <time>2016-08-16T07:51:54Z</time>
      </trkpt>
      <trkpt lat="48.17837" lon="-0.39969">
        <ele>147.167</ele>
        <time>2016-08-16T07:52:01Z</time>
      </trkpt>
      <trkpt lat="48.1782" lon="-0.3998">
        <ele>146.804</ele>
        <time>2016-08-16T07:52:07Z</time>
      </trkpt>
      <trkpt lat="48.17795" lon="-0.40004">
        <ele>146.612</ele>
        <time>2016-08-16T07:52:16Z</time>
      </trkpt>
      <trkpt lat="48.17777" lon="-0.40031">
        <ele>146.662</ele>
        <time>2016-08-16T07:52:25Z</time>
      </trkpt>
      <trkpt lat="48.1779" lon="-0.4006">
        <ele>146.74</ele>
        <time>2016-08-16T07:52:32Z</time>
      </trkpt>
      <trkpt lat="48.17798" lon="-0.40084">
        <ele>146.508</ele>
        <time>2016-08-16T07:52:38Z</time>
      </trkpt>
      <trkpt lat="48.17799" lon="-0.40119">
        <ele>145.696</ele>
        <time>2016-08-16T07:52:46Z</time>
      </trkpt>
      <trkpt lat="48.17796" lon="-0.40132">
        <ele>145.481</ele>
        <time>2016-08-16T07:52:49Z</time>
      </trkpt>
      <trkpt lat="48.17791" lon="-0.40166">
        <ele>145.271</ele>
        <time>2016-08-16T07:52:56Z</time>
      </trkpt>
      <trkpt lat="48.17787" lon="-0.4019">
        <ele>145.566</ele>
        <time>2016-08-16T07:53:02Z</time>
      </trkpt>
      <trkpt lat="48.17779" lon="-0.4021">
        <ele>146.434</ele>
        <time>2016-08-16T07:53:09Z</time>
      </trkpt>
      <trkpt lat="48.17759" lon="-0.40207">
        <ele>146.726</ele>
        <time>2016-08-16T07:53:16Z</time>
      </trkpt>
      <trkpt lat="48.17732" lon="-0.40201">
        <ele>146.644</ele>
        <time>2016-08-16T07:53:25Z</time>
      </trkpt>
      <trkpt lat="48.17714" lon="-0.40197">
        <ele>146.756</ele>
        <time>2016-08-16T07:53:32Z</time>
      </trkpt>
      <trkpt lat="48.1769" lon="-0.40196">
        <ele>146.914</ele>
        <time>2016-08-16T07:53:40Z</time>
      </trkpt>
      <trkpt lat="48.17667" lon="-0.40196">
        <ele>147.045</ele>
        <time>2016-08-16T07:53:48Z</time>
      </trkpt>
      <trkpt lat="48.17658" lon="-0.40197">
        <ele>147.069</ele>
        <time>2016-08-16T07:53:51Z</time>
      </trkpt>
      <trkpt lat="48.17641" lon="-0.40199">
        <ele>147.015</ele>
        <time>2016-08-16T07:53:57Z</time>
      </trkpt>
      <trkpt lat="48.17625" lon="-0.40217">
        <ele>147.318</ele>
        <time>2016-08-16T07:54:04Z</time>
      </trkpt>
      <trkpt lat="48.17616" lon="-0.40253">
        <ele>147.59</ele>
        <time>2016-08-16T07:54:12Z</time>
      </trkpt>
      <trkpt lat="48.17607" lon="-0.4028">
        <ele>147.326</ele>
        <time>2016-08-16T07:54:19Z</time>
      </trkpt>
      <trkpt lat="48.17597" lon="-0.40301">
        <ele>147.035</ele>
        <time>2016-08-16T07:54:24Z</time>
      </trkpt>
      <trkpt lat="48.17589" lon="-0.40322">
        <ele>147.182</ele>
        <time>2016-08-16T07:54:29Z</time>
      </trkpt>
      <trkpt lat="48.17575" lon="-0.40353">
        <ele>147.978</ele>
        <time>2016-08-16T07:54:37Z</time>
      </trkpt>
      <trkpt lat="48.1757" lon="-0.40363">
        <ele>148.368</ele>
        <time>2016-08-16T07:54:40Z</time>
      </trkpt>
      <trkpt lat="48.17554" lon="-0.40394">
        <ele>150.957</ele>
        <time>2016-08-16T07:54:48Z</time>
      </trkpt>
      <trkpt lat="48.17545" lon="-0.40415">
        <ele>151.307</ele>
        <time>2016-08-16T07:54:53Z</time>
      </trkpt>
      <trkpt lat="48.17543" lon="-0.40444">
        <ele>150.746</ele>
        <time>2016-08-16T07:55:02Z</time>
      </trkpt>
      <trkpt lat="48.17561" lon="-0.40451">
        <ele>150.961</ele>
        <time>2016-08-16T07:55:11Z</time>
      </trkpt>
      <trkpt lat="48.17577" lon="-0.40458">
        <ele>150.862</ele>
        <time>2016-08-16T07:55:19Z</time>
      </trkpt>
      <trkpt lat="48.17578" lon="-0.40478">
        <ele>150.501</ele>
        <time>2016-08-16T07:55:25Z</time>
      </trkpt>
      <trkpt lat="48.17562" lon="-0.40503">
        <ele>149.802</ele>
        <time>2016-08-16T07:55:33Z</time>
      </trkpt>
      <trkpt lat="48.17548" lon="-0.40524">
        <ele>149.537</ele>
        <time>2016-08-16T07:55:41Z</time>
      </trkpt>
      <trkpt lat="48.17543" lon="-0.40549">
        <ele>148.975</ele>
        <time>2016-08-16T07:55:48Z</time>
      </trkpt>
      <trkpt lat="48.17553" lon="-0.40584">
        <ele>149.144</ele>
        <time>2016-08-16T07:55:56Z</time>
      </trkpt>
      <trkpt lat="48.17564" lon="-0.40619">
        <ele>148.534</ele>
        <time>2016-08-16T07:56:04Z</time>
      </trkpt>
      <trkpt lat="48.17565" lon="-0.40647">
        <ele>148.533</ele>
        <time>2016-08-16T07:56:09Z</time>
      </trkpt>
      <trkpt lat="48.17561" lon="-0.40683">
        <ele>149.73</ele>
        <time>2016-08-16T07:56:15Z</time>
      </trkpt>
      <trkpt lat="48.17556" lon="-0.40705">
        <ele>148.999</ele>
        <time>2016-08-16T07:56:18Z</time>
      </trkpt>
      <trkpt lat="48.17551" lon="-0.40727">
        <ele>149.339</ele>
        <time>2016-08-16T07:56:21Z</time>
      </trkpt>
      <trkpt lat="48.17543" lon="-0.40756">
        <ele>149.766</ele>
        <time>2016-08-16T07:56:26Z</time>
      </trkpt>
      <trkpt lat="48.17533" lon="-0.40793">
        <ele>149.384</ele>
        <time>2016-08-16T07:56:32Z</time>
      </trkpt>
      <trkpt lat="48.17527" lon="-0.40817">
        <ele>149.405</ele>
        <time>2016-08-16T07:56:37Z</time>
      </trkpt>
      <trkpt lat="48.17521" lon="-0.40849">
        <ele>149.957</ele>
        <time>2016-08-16T07:56:43Z</time>
      </trkpt>
      <trkpt lat="48.17516" lon="-0.40881">
        <ele>150.686</ele>
        <time>2016-08-16T07:56:49Z</time>
      </trkpt>
      <trkpt lat="48.17509" lon="-0.4091">
        <ele>150.178</ele>
        <time>2016-08-16T07:56:55Z</time>
      </trkpt>
      <trkpt lat="48.17498" lon="-0.40935">
        <ele>149.622</ele>
        <time>2016-08-16T07:57:01Z</time>
      </trkpt>
      <trkpt lat="48.17491" lon="-0.40945">
        <ele>149.289</ele>
        <time>2016-08-16T07:57:04Z</time>
      </trkpt>
      <trkpt lat="48.17484" lon="-0.40956">
        <ele>148.927</ele>
        <time>2016-08-16T07:57:07Z</time>
      </trkpt>
      <trkpt lat="48.17468" lon="-0.40983">
        <ele>148.529</ele>
        <time>2016-08-16T07:57:15Z</time>
      </trkpt>
      <trkpt lat="48.17457" lon="-0.41">
        <ele>148.54</ele>
        <time>2016-08-16T07:57:20Z</time>
      </trkpt>
      <trkpt lat="48.17439" lon="-0.41026">
        <ele>148.806</ele>
        <time>2016-08-16T07:57:28Z</time>
      </trkpt>
      <trkpt lat="48.17422" lon="-0.41052">
        <ele>148.588</ele>
        <time>2016-08-16T07:57:36Z</time>
      </trkpt>
      <trkpt lat="48.17402" lon="-0.41063">
        <ele>148.809</ele>
        <time>2016-08-16T07:57:42Z</time>
      </trkpt>
      <trkpt lat="48.17387" lon="-0.4107">
        <ele>148.923</ele>
        <time>2016-08-16T07:57:47Z</time>
      </trkpt>
      <trkpt lat="48.17373" lon="-0.41085">
        <ele>148.781</ele>
        <time>2016-08-16T07:57:53Z</time>
      </trkpt>
      <trkpt lat="48.17359" lon="-0.4112">
        <ele>146.869</ele>
        <time>2016-08-16T07:58:00Z</time>
      </trkpt>
      <trkpt lat="48.17356" lon="-0.41137">
        <ele>144.339</ele>
        <time>2016-08-16T07:58:03Z</time>
      </trkpt>
      <trkpt lat="48.17352" lon="-0.41174">
        <ele>142.848</ele>
        <time>2016-08-16T07:58:10Z</time>
      </trkpt>
      <trkpt lat="48.17333" lon="-0.41183">
        <ele>142.204</ele>
        <time>2016-08-16T07:58:18Z</time>
      </trkpt>
      <trkpt lat="48.17314" lon="-0.41174">
        <ele>142.638</ele>
        <time>2016-08-16T07:58:26Z</time>
      </trkpt>
      <trkpt lat="48.17314" lon="-0.41174">
        <ele>142.638</ele>
        <time>2016-08-16T07:58:32Z</time>
      </trkpt>
      <trkpt lat="48.17293" lon="-0.41169">
        <ele>146.611</ele>
        <time>2016-08-16T07:59:44Z</time>
      </trkpt>
      <trkpt lat="48.1727" lon="-0.41201">
        <ele>147.209</ele>
        <time>2016-08-16T07:59:55Z</time>
      </trkpt>
      <trkpt lat="48.17254" lon="-0.41228">
        <ele>147.746</ele>
        <time>2016-08-16T08:00:02Z</time>
      </trkpt>
      <trkpt lat="48.17267" lon="-0.41254">
        <ele>147.798</ele>
        <time>2016-08-16T08:00:08Z</time>
      </trkpt>
      <trkpt lat="48.1728" lon="-0.41266">
        <ele>147.701</ele>
        <time>2016-08-16T08:00:13Z</time>
      </trkpt>
      <trkpt lat="48.17282" lon="-0.4129">
        <ele>147.606</ele>
        <time>2016-08-16T08:00:19Z</time>
      </trkpt>
      <trkpt lat="48.17281" lon="-0.41324">
        <ele>147.269</ele>
        <time>2016-08-16T08:00:26Z</time>
      </trkpt>
      <trkpt lat="48.17278" lon="-0.41346">
        <ele>146.975</ele>
        <time>2016-08-16T08:00:31Z</time>
      </trkpt>
      <trkpt lat="48.17285" lon="-0.41369">
        <ele>146.42</ele>
        <time>2016-08-16T08:00:39Z</time>
      </trkpt>
      <trkpt lat="48.17311" lon="-0.41376">
        <ele>146.368</ele>
        <time>2016-08-16T08:00:48Z</time>
      </trkpt>
      <trkpt lat="48.1733" lon="-0.4139">
        <ele>146.386</ele>
        <time>2016-08-16T08:00:54Z</time>
      </trkpt>
      <trkpt lat="48.17331" lon="-0.41408">
        <ele>146.023</ele>
        <time>2016-08-16T08:00:59Z</time>
      </trkpt>
      <trkpt lat="48.17341" lon="-0.41414">
        <ele>145.33</ele>
        <time>2016-08-16T08:01:06Z</time>
      </trkpt>
      <trkpt lat="48.1738" lon="-0.41415">
        <ele>146.01</ele>
        <time>2016-08-16T08:01:17Z</time>
      </trkpt>
      <trkpt lat="48.17391" lon="-0.41417">
        <ele>145.629</ele>
        <time>2016-08-16T08:01:22Z</time>
      </trkpt>
      <trkpt lat="48.17423" lon="-0.41435">
        <ele>144.423</ele>
        <time>2016-08-16T08:01:32Z</time>
      </trkpt>
      <trkpt lat="48.17436" lon="-0.41442">
        <ele>144.048</ele>
        <time>2016-08-16T08:01:35Z</time>
      </trkpt>
      <trkpt lat="48.17457" lon="-0.41455">
        <ele>143.164</ele>
        <time>2016-08-16T08:01:41Z</time>
      </trkpt>
      <trkpt lat="48.17462" lon="-0.41492">
        <ele>142.348</ele>
        <time>2016-08-16T08:01:49Z</time>
      </trkpt>
      <trkpt lat="48.17463" lon="-0.41524">
        <ele>141.821</ele>
        <time>2016-08-16T08:01:55Z</time>
      </trkpt>
      <trkpt lat="48.17462" lon="-0.41555">
        <ele>140.88</ele>
        <time>2016-08-16T08:02:02Z</time>
      </trkpt>
      <trkpt lat="48.17463" lon="-0.41579">
        <ele>139.797</ele>
        <time>2016-08-16T08:02:08Z</time>
      </trkpt>
      <trkpt lat="48.17463" lon="-0.41611">
        <ele>140.574</ele>
        <time>2016-08-16T08:03:09Z</time>
      </trkpt>
      <trkpt lat="48.17467" lon="-0.41642">
        <ele>140.683</ele>
        <time>2016-08-16T08:03:16Z</time>
      </trkpt>
      <trkpt lat="48.17471" lon="-0.41662">
        <ele>140.433</ele>
        <time>2016-08-16T08:03:21Z</time>
      </trkpt>
      <trkpt lat="48.17472" lon="-0.41693">
        <ele>139.536</ele>
        <time>2016-08-16T08:03:29Z</time>
      </trkpt>
      <trkpt lat="48.17484" lon="-0.41729">
        <ele>139.085</ele>
        <time>2016-08-16T08:03:38Z</time>
      </trkpt>
      <trkpt lat="48.17495" lon="-0.41751">
        <ele>139.119</ele>
        <time>2016-08-16T08:03:45Z</time>
      </trkpt>
      <trkpt lat="48.17497" lon="-0.41794">
        <ele>139.112</ele>
        <time>2016-08-16T08:03:53Z</time>
      </trkpt>
      <trkpt lat="48.17503" lon="-0.41815">
        <ele>138.744</ele>
        <time>2016-08-16T08:03:59Z</time>
      </trkpt>
      <trkpt lat="48.1752" lon="-0.41829">
        <ele>138.567</ele>
        <time>2016-08-16T08:04:07Z</time>
      </trkpt>
      <trkpt lat="48.1753" lon="-0.41834">
        <ele>138.257</ele>
        <time>2016-08-16T08:04:10Z</time>
      </trkpt>
      <trkpt lat="48.17539" lon="-0.41838">
        <ele>138.104</ele>
        <time>2016-08-16T08:04:13Z</time>
      </trkpt>
      <trkpt lat="48.17558" lon="-0.41848">
        <ele>137.968</ele>
        <time>2016-08-16T08:04:20Z</time>
      </trkpt>
      <trkpt lat="48.17579" lon="-0.41856">
        <ele>138.098</ele>
        <time>2016-08-16T08:04:27Z</time>
      </trkpt>
      <trkpt lat="48.17601" lon="-0.4187">
        <ele>138.333</ele>
        <time>2016-08-16T08:04:36Z</time>
      </trkpt>
      <trkpt lat="48.17598" lon="-0.41895">
        <ele>138.397</ele>
        <time>2016-08-16T08:04:42Z</time>
      </trkpt>
      <trkpt lat="48.1759" lon="-0.41919">
        <ele>138.647</ele>
        <time>2016-08-16T08:04:48Z</time>
      </trkpt>
      <trkpt lat="48.17575" lon="-0.41948">
        <ele>138.617</ele>
        <time>2016-08-16T08:04:55Z</time>
      </trkpt>
      <trkpt lat="48.17564" lon="-0.41968">
        <ele>138.788</ele>
        <time>2016-08-16T08:05:00Z</time>
      </trkpt>
      <trkpt lat="48.17553" lon="-0.41991">
        <ele>138.995</ele>
        <time>2016-08-16T08:05:05Z</time>
      </trkpt>
      <trkpt lat="48.17547" lon="-0.42004">
        <ele>139</ele>
        <time>2016-08-16T08:05:08Z</time>
      </trkpt>
      <trkpt lat="48.1754" lon="-0.42021">
        <ele>138.894</ele>
        <time>2016-08-16T08:05:13Z</time>
      </trkpt>
      <trkpt lat="48.17533" lon="-0.42039">
        <ele>138.596</ele>
        <time>2016-08-16T08:05:18Z</time>
      </trkpt>
      <trkpt lat="48.17518" lon="-0.42068">
        <ele>138.197</ele>
        <time>2016-08-16T08:05:26Z</time>
      </trkpt>
      <trkpt lat="48.17523" lon="-0.4209">
        <ele>138.495</ele>
        <time>2016-08-16T08:05:34Z</time>
      </trkpt>
      <trkpt lat="48.17541" lon="-0.42109">
        <ele>138.882</ele>
        <time>2016-08-16T08:05:44Z</time>
      </trkpt>
      <trkpt lat="48.17553" lon="-0.42125">
        <ele>138.948</ele>
        <time>2016-08-16T08:05:50Z</time>
      </trkpt>
      <trkpt lat="48.17561" lon="-0.42135">
        <ele>139.053</ele>
        <time>2016-08-16T08:05:54Z</time>
      </trkpt>
      <trkpt lat="48.17579" lon="-0.42157">
        <ele>139.38</ele>
        <time>2016-08-16T08:06:03Z</time>
      </trkpt>
      <trkpt lat="48.17594" lon="-0.42175">
        <ele>139.35</ele>
        <time>2016-08-16T08:06:10Z</time>
      </trkpt>
      <trkpt lat="48.17605" lon="-0.42189">
        <ele>139.671</ele>
        <time>2016-08-16T08:06:16Z</time>
      </trkpt>
      <trkpt lat="48.17614" lon="-0.42202">
        <ele>140.079</ele>
        <time>2016-08-16T08:06:21Z</time>
      </trkpt>
      <trkpt lat="48.17621" lon="-0.42211">
        <ele>140.116</ele>
        <time>2016-08-16T08:06:24Z</time>
      </trkpt>
      <trkpt lat="48.17635" lon="-0.42226">
        <ele>140.336</ele>
        <time>2016-08-16T08:06:31Z</time>
      </trkpt>
      <trkpt lat="48.17655" lon="-0.42249">
        <ele>140.999</ele>
        <time>2016-08-16T08:06:40Z</time>
      </trkpt>
      <trkpt lat="48.17674" lon="-0.42275">
        <ele>142.13</ele>
        <time>2016-08-16T08:06:50Z</time>
      </trkpt>
      <trkpt lat="48.17686" lon="-0.4229">
        <ele>142.406</ele>
        <time>2016-08-16T08:06:56Z</time>
      </trkpt>
      <trkpt lat="48.17703" lon="-0.42313">
        <ele>142.706</ele>
        <time>2016-08-16T08:07:04Z</time>
      </trkpt>
      <trkpt lat="48.1772" lon="-0.42332">
        <ele>143.137</ele>
        <time>2016-08-16T08:07:12Z</time>
      </trkpt>
      <trkpt lat="48.17735" lon="-0.42351">
        <ele>143.167</ele>
        <time>2016-08-16T08:07:20Z</time>
      </trkpt>
      <trkpt lat="48.1774" lon="-0.42357">
        <ele>143.168</ele>
        <time>2016-08-16T08:07:25Z</time>
      </trkpt>
      <trkpt lat="48.17757" lon="-0.4238">
        <ele>142.613</ele>
        <time>2016-08-16T08:08:48Z</time>
      </trkpt>
      <trkpt lat="48.17775" lon="-0.42404">
        <ele>143.379</ele>
        <time>2016-08-16T08:08:59Z</time>
      </trkpt>
      <trkpt lat="48.178" lon="-0.42433">
        <ele>144.446</ele>
        <time>2016-08-16T08:09:11Z</time>
      </trkpt>
      <trkpt lat="48.17816" lon="-0.42455">
        <ele>145.961</ele>
        <time>2016-08-16T08:09:20Z</time>
      </trkpt>
      <trkpt lat="48.17827" lon="-0.4247">
        <ele>146.698</ele>
        <time>2016-08-16T08:09:26Z</time>
      </trkpt>
      <trkpt lat="48.17838" lon="-0.42483">
        <ele>147.087</ele>
        <time>2016-08-16T08:09:31Z</time>
      </trkpt>
      <trkpt lat="48.17852" lon="-0.42501">
        <ele>147.964</ele>
        <time>2016-08-16T08:09:38Z</time>
      </trkpt>
      <trkpt lat="48.17869" lon="-0.42517">
        <ele>148.772</ele>
        <time>2016-08-16T08:09:46Z</time>
      </trkpt>
      <trkpt lat="48.17884" lon="-0.42531">
        <ele>149.37</ele>
        <time>2016-08-16T08:09:53Z</time>
      </trkpt>
      <trkpt lat="48.17903" lon="-0.42547">
        <ele>150.141</ele>
        <time>2016-08-16T08:10:01Z</time>
      </trkpt>
      <trkpt lat="48.17922" lon="-0.4256">
        <ele>150.924</ele>
        <time>2016-08-16T08:10:09Z</time>
      </trkpt>
      <trkpt lat="48.17942" lon="-0.42571">
        <ele>151.912</ele>
        <time>2016-08-16T08:10:17Z</time>
      </trkpt>
      <trkpt lat="48.17954" lon="-0.42578">
        <ele>152.524</ele>
        <time>2016-08-16T08:10:22Z</time>
      </trkpt>
      <trkpt lat="48.17966" lon="-0.42584">
        <ele>153.169</ele>
        <time>2016-08-16T08:10:27Z</time>
      </trkpt>
      <trkpt lat="48.17988" lon="-0.42592">
        <ele>154.493</ele>
        <time>2016-08-16T08:10:37Z</time>
      </trkpt>
      <trkpt lat="48.17999" lon="-0.42574">
        <ele>155.922</ele>
        <time>2016-08-16T08:10:51Z</time>
      </trkpt>
      <trkpt lat="48.18005" lon="-0.42554">
        <ele>156.759</ele>
        <time>2016-08-16T08:11:00Z</time>
      </trkpt>
      <trkpt lat="48.18009" lon="-0.42533">
        <ele>157.133</ele>
        <time>2016-08-16T08:11:08Z</time>
      </trkpt>
      <trkpt lat="48.18019" lon="-0.42499">
        <ele>157.373</ele>
        <time>2016-08-16T08:11:20Z</time>
      </trkpt>
      <trkpt lat="48.1803" lon="-0.4247">
        <ele>157.446</ele>
        <time>2016-08-16T08:11:30Z</time>
      </trkpt>
      <trkpt lat="48.18047" lon="-0.4247">
        <ele>157.405</ele>
        <time>2016-08-16T08:11:39Z</time>
      </trkpt>
      <trkpt lat="48.18064" lon="-0.4248">
        <ele>157.925</ele>
        <time>2016-08-16T08:11:47Z</time>
      </trkpt>
      <trkpt lat="48.18076" lon="-0.42486">
        <ele>158.368</ele>
        <time>2016-08-16T08:11:52Z</time>
      </trkpt>
      <trkpt lat="48.1809" lon="-0.42471">
        <ele>158.776</ele>
        <time>2016-08-16T08:12:00Z</time>
      </trkpt>
      <trkpt lat="48.18098" lon="-0.4245">
        <ele>158.909</ele>
        <time>2016-08-16T08:12:08Z</time>
      </trkpt>
      <trkpt lat="48.18107" lon="-0.42425">
        <ele>158.87</ele>
        <time>2016-08-16T08:12:15Z</time>
      </trkpt>
      <trkpt lat="48.18116" lon="-0.42398">
        <ele>158.62</ele>
        <time>2016-08-16T08:12:23Z</time>
      </trkpt>
      <trkpt lat="48.18124" lon="-0.42376">
        <ele>158.813</ele>
        <time>2016-08-16T08:12:30Z</time>
      </trkpt>
      <trkpt lat="48.18134" lon="-0.42371">
        <ele>158.873</ele>
        <time>2016-08-16T08:12:36Z</time>
      </trkpt>
      <trkpt lat="48.18159" lon="-0.42386">
        <ele>158.44</ele>
        <time>2016-08-16T08:12:46Z</time>
      </trkpt>
      <trkpt lat="48.18167" lon="-0.42391">
        <ele>158.364</ele>
        <time>2016-08-16T08:12:49Z</time>
      </trkpt>
      <trkpt lat="48.18178" lon="-0.42398">
        <ele>158.02</ele>
        <time>2016-08-16T08:12:53Z</time>
      </trkpt>
      <trkpt lat="48.18203" lon="-0.42412">
        <ele>157.672</ele>
        <time>2016-08-16T08:13:01Z</time>
      </trkpt>
      <trkpt lat="48.18216" lon="-0.42412">
        <ele>157.536</ele>
        <time>2016-08-16T08:13:06Z</time>
      </trkpt>
      <trkpt lat="48.18231" lon="-0.42406">
        <ele>158.023</ele>
        <time>2016-08-16T08:13:12Z</time>
      </trkpt>
      <trkpt lat="48.1826" lon="-0.42421">
        <ele>158.682</ele>
        <time>2016-08-16T08:13:20Z</time>
      </trkpt>
      <trkpt lat="48.18286" lon="-0.42436">
        <ele>156.393</ele>
        <time>2016-08-16T08:13:26Z</time>
      </trkpt>
      <trkpt lat="48.18312" lon="-0.42449">
        <ele>155.745</ele>
        <time>2016-08-16T08:13:32Z</time>
      </trkpt>
      <trkpt lat="48.18338" lon="-0.42463">
        <ele>153.049</ele>
        <time>2016-08-16T08:13:38Z</time>
      </trkpt>
      <trkpt lat="48.18352" lon="-0.42478">
        <ele>153.106</ele>
        <time>2016-08-16T08:13:44Z</time>
      </trkpt>
      <trkpt lat="48.18349" lon="-0.4251">
        <ele>153.131</ele>
        <time>2016-08-16T08:13:51Z</time>
      </trkpt>
      <trkpt lat="48.1834" lon="-0.42544">
        <ele>153.673</ele>
        <time>2016-08-16T08:13:59Z</time>
      </trkpt>
      <trkpt lat="48.18332" lon="-0.42582">
        <ele>153.7</ele>
        <time>2016-08-16T08:14:07Z</time>
      </trkpt>
      <trkpt lat="48.18335" lon="-0.42608">
        <ele>153.433</ele>
        <time>2016-08-16T08:14:14Z</time>
      </trkpt>
      <trkpt lat="48.18359" lon="-0.42615">
        <ele>153.193</ele>
        <time>2016-08-16T08:14:23Z</time>
      </trkpt>
      <trkpt lat="48.18378" lon="-0.42624">
        <ele>152.885</ele>
        <time>2016-08-16T08:14:30Z</time>
      </trkpt>
      <trkpt lat="48.18406" lon="-0.42634">
        <ele>153.367</ele>
        <time>2016-08-16T08:14:39Z</time>
      </trkpt>
      <trkpt lat="48.18423" lon="-0.42643">
        <ele>153.394</ele>
        <time>2016-08-16T08:14:45Z</time>
      </trkpt>
      <trkpt lat="48.18447" lon="-0.42656">
        <ele>152.991</ele>
        <time>2016-08-16T08:14:53Z</time>
      </trkpt>
      <trkpt lat="48.18456" lon="-0.4266">
        <ele>153.089</ele>
        <time>2016-08-16T08:14:56Z</time>
      </trkpt>
      <trkpt lat="48.18465" lon="-0.42664">
        <ele>153.231</ele>
        <time>2016-08-16T08:15:00Z</time>
      </trkpt>
      <trkpt lat="48.18477" lon="-0.4267">
        <ele>153.462</ele>
        <time>2016-08-16T08:15:05Z</time>
      </trkpt>
      <trkpt lat="48.18497" lon="-0.42679">
        <ele>153.542</ele>
        <time>2016-08-16T08:15:14Z</time>
      </trkpt>
      <trkpt lat="48.1851" lon="-0.42684">
        <ele>153.732</ele>
        <time>2016-08-16T08:15:19Z</time>
      </trkpt>
      <trkpt lat="48.18525" lon="-0.42689">
        <ele>153.665</ele>
        <time>2016-08-16T08:15:24Z</time>
      </trkpt>
      <trkpt lat="48.18546" lon="-0.42696">
        <ele>153.087</ele>
        <time>2016-08-16T08:15:31Z</time>
      </trkpt>
      <trkpt lat="48.18567" lon="-0.42707">
        <ele>152.511</ele>
        <time>2016-08-16T08:15:38Z</time>
      </trkpt>
      <trkpt lat="48.18588" lon="-0.42721">
        <ele>152.657</ele>
        <time>2016-08-16T08:15:46Z</time>
      </trkpt>
      <trkpt lat="48.1861" lon="-0.42727">
        <ele>152.508</ele>
        <time>2016-08-16T08:15:54Z</time>
      </trkpt>
      <trkpt lat="48.18634" lon="-0.42731">
        <ele>152.162</ele>
        <time>2016-08-16T08:16:03Z</time>
      </trkpt>
      <trkpt lat="48.18644" lon="-0.42731">
        <ele>152.065</ele>
        <time>2016-08-16T08:16:07Z</time>
      </trkpt>
      <trkpt lat="48.18657" lon="-0.42731">
        <ele>151.643</ele>
        <time>2016-08-16T08:16:13Z</time>
      </trkpt>
      <trkpt lat="48.18673" lon="-0.42731">
        <ele>150.977</ele>
        <time>2016-08-16T08:16:20Z</time>
      </trkpt>
      <trkpt lat="48.18695" lon="-0.42732">
        <ele>150.688</ele>
        <time>2016-08-16T08:16:29Z</time>
      </trkpt>
      <trkpt lat="48.1871" lon="-0.42733">
        <ele>150.595</ele>
        <time>2016-08-16T08:16:35Z</time>
      </trkpt>
      <trkpt lat="48.18731" lon="-0.42738">
        <ele>150.351</ele>
        <time>2016-08-16T08:16:42Z</time>
      </trkpt>
      <trkpt lat="48.18746" lon="-0.42749">
        <ele>150.394</ele>
        <time>2016-08-16T08:16:48Z</time>
      </trkpt>
      <trkpt lat="48.18757" lon="-0.42757">
        <ele>150.758</ele>
        <time>2016-08-16T08:16:53Z</time>
      </trkpt>
      <trkpt lat="48.1878" lon="-0.42778">
        <ele>151.171</ele>
        <time>2016-08-16T08:17:03Z</time>
      </trkpt>
      <trkpt lat="48.18793" lon="-0.42791">
        <ele>151.711</ele>
        <time>2016-08-16T08:17:10Z</time>
      </trkpt>
      <trkpt lat="48.18813" lon="-0.42806">
        <ele>152.542</ele>
        <time>2016-08-16T08:17:19Z</time>
      </trkpt>
      <trkpt lat="48.18829" lon="-0.4282">
        <ele>153.266</ele>
        <time>2016-08-16T08:17:26Z</time>
      </trkpt>
      <trkpt lat="48.18844" lon="-0.42837">
        <ele>154.026</ele>
        <time>2016-08-16T08:17:35Z</time>
      </trkpt>
      <trkpt lat="48.18862" lon="-0.42828">
        <ele>155.17</ele>
        <time>2016-08-16T08:17:44Z</time>
      </trkpt>
      <trkpt lat="48.1888" lon="-0.42813">
        <ele>155.937</ele>
        <time>2016-08-16T08:17:52Z</time>
      </trkpt>
      <trkpt lat="48.18902" lon="-0.42814">
        <ele>156.149</ele>
        <time>2016-08-16T08:18:01Z</time>
      </trkpt>
      <trkpt lat="48.18923" lon="-0.42817">
        <ele>156.865</ele>
        <time>2016-08-16T08:18:10Z</time>
      </trkpt>
      <trkpt lat="48.18941" lon="-0.4282">
        <ele>157.644</ele>
        <time>2016-08-16T08:18:17Z</time>
      </trkpt>
      <trkpt lat="48.18953" lon="-0.42821">
        <ele>158.311</ele>
        <time>2016-08-16T08:18:22Z</time>
      </trkpt>
      <trkpt lat="48.18973" lon="-0.42824">
        <ele>159.315</ele>
        <time>2016-08-16T08:18:31Z</time>
      </trkpt>
      <trkpt lat="48.18997" lon="-0.42833">
        <ele>160.287</ele>
        <time>2016-08-16T08:18:41Z</time>
      </trkpt>
      <trkpt lat="48.19016" lon="-0.42843">
        <ele>161.181</ele>
        <time>2016-08-16T08:18:49Z</time>
      </trkpt>
      <trkpt lat="48.1904" lon="-0.42855">
        <ele>161.755</ele>
        <time>2016-08-16T08:18:57Z</time>
      </trkpt>
      <trkpt lat="48.19057" lon="-0.42863">
        <ele>161.894</ele>
        <time>2016-08-16T08:19:05Z</time>
      </trkpt>
      <trkpt lat="48.19071" lon="-0.4287">
        <ele>162.149</ele>
        <time>2016-08-16T08:19:11Z</time>
      </trkpt>
      <trkpt lat="48.19086" lon="-0.42876">
        <ele>162.796</ele>
        <time>2016-08-16T08:19:19Z</time>
      </trkpt>
      <trkpt lat="48.19098" lon="-0.42879">
        <ele>162.851</ele>
        <time>2016-08-16T08:19:30Z</time>
      </trkpt>
      <trkpt lat="48.19097" lon="-0.4288">
        <ele>161.023</ele>
        <time>2016-08-16T08:23:08Z</time>
      </trkpt>
      <trkpt lat="48.19113" lon="-0.42907">
        <ele>163.66</ele>
        <time>2016-08-16T08:23:35Z</time>
      </trkpt>
      <trkpt lat="48.19133" lon="-0.42908">
        <ele>164.32</ele>
        <time>2016-08-16T08:23:44Z</time>
      </trkpt>
      <trkpt lat="48.1915" lon="-0.42907">
        <ele>164.369</ele>
        <time>2016-08-16T08:23:50Z</time>
      </trkpt>
      <trkpt lat="48.19175" lon="-0.42903">
        <ele>163.579</ele>
        <time>2016-08-16T08:23:59Z</time>
      </trkpt>
      <trkpt lat="48.19192" lon="-0.42897">
        <ele>162.988</ele>
        <time>2016-08-16T08:24:06Z</time>
      </trkpt>
      <trkpt lat="48.19212" lon="-0.42894">
        <ele>162.646</ele>
        <time>2016-08-16T08:24:15Z</time>
      </trkpt>
      <trkpt lat="48.19236" lon="-0.42895">
        <ele>162.515</ele>
        <time>2016-08-16T08:24:24Z</time>
      </trkpt>
      <trkpt lat="48.19256" lon="-0.42892">
        <ele>162.35</ele>
        <time>2016-08-16T08:24:30Z</time>
      </trkpt>
      <trkpt lat="48.19275" lon="-0.42892">
        <ele>161.86</ele>
        <time>2016-08-16T08:24:38Z</time>
      </trkpt>
      <trkpt lat="48.19301" lon="-0.42884">
        <ele>161.604</ele>
        <time>2016-08-16T08:24:49Z</time>
      </trkpt>
      <trkpt lat="48.19317" lon="-0.42879">
        <ele>161.736</ele>
        <time>2016-08-16T08:24:58Z</time>
      </trkpt>
      <trkpt lat="48.19345" lon="-0.42878">
        <ele>161.958</ele>
        <time>2016-08-16T08:25:07Z</time>
      </trkpt>
      <trkpt lat="48.19374" lon="-0.42875">
        <ele>161.041</ele>
        <time>2016-08-16T08:25:15Z</time>
      </trkpt>
      <trkpt lat="48.19392" lon="-0.42879">
        <ele>160.844</ele>
        <time>2016-08-16T08:25:20Z</time>
      </trkpt>
      <trkpt lat="48.19417" lon="-0.42883">
        <ele>160.893</ele>
        <time>2016-08-16T08:25:27Z</time>
      </trkpt>
      <trkpt lat="48.19442" lon="-0.4289">
        <ele>160.846</ele>
        <time>2016-08-16T08:25:35Z</time>
      </trkpt>
      <trkpt lat="48.19466" lon="-0.42909">
        <ele>160.838</ele>
        <time>2016-08-16T08:25:44Z</time>
      </trkpt>
      <trkpt lat="48.19488" lon="-0.42926">
        <ele>160.83</ele>
        <time>2016-08-16T08:25:52Z</time>
      </trkpt>
      <trkpt lat="48.19508" lon="-0.42941">
        <ele>161.789</ele>
        <time>2016-08-16T08:25:59Z</time>
      </trkpt>
      <trkpt lat="48.19546" lon="-0.42959">
        <ele>161.298</ele>
        <time>2016-08-16T08:26:09Z</time>
      </trkpt>
      <trkpt lat="48.1956" lon="-0.42971">
        <ele>161.223</ele>
        <time>2016-08-16T08:26:14Z</time>
      </trkpt>
      <trkpt lat="48.19582" lon="-0.42986">
        <ele>160.848</ele>
        <time>2016-08-16T08:26:21Z</time>
      </trkpt>
      <trkpt lat="48.19613" lon="-0.43">
        <ele>160.231</ele>
        <time>2016-08-16T08:26:30Z</time>
      </trkpt>
      <trkpt lat="48.19631" lon="-0.43008">
        <ele>159.793</ele>
        <time>2016-08-16T08:26:35Z</time>
      </trkpt>
      <trkpt lat="48.19655" lon="-0.43021">
        <ele>159.174</ele>
        <time>2016-08-16T08:26:42Z</time>
      </trkpt>
      <trkpt lat="48.19655" lon="-0.43021">
        <ele>159.174</ele>
        <time>2016-08-16T08:26:48Z</time>
      </trkpt>
      <trkpt lat="48.19672" lon="-0.43034">
        <ele>156.268</ele>
        <time>2016-08-16T08:28:09Z</time>
      </trkpt>
      <trkpt lat="48.19691" lon="-0.43044">
        <ele>155.408</ele>
        <time>2016-08-16T08:28:15Z</time>
      </trkpt>
      <trkpt lat="48.19712" lon="-0.43052">
        <ele>155.098</ele>
        <time>2016-08-16T08:28:22Z</time>
      </trkpt>
      <trkpt lat="48.19726" lon="-0.43059">
        <ele>154.845</ele>
        <time>2016-08-16T08:28:27Z</time>
      </trkpt>
      <trkpt lat="48.19745" lon="-0.43074">
        <ele>154.178</ele>
        <time>2016-08-16T08:28:35Z</time>
      </trkpt>
      <trkpt lat="48.19766" lon="-0.43084">
        <ele>153.759</ele>
        <time>2016-08-16T08:28:43Z</time>
      </trkpt>
      <trkpt lat="48.19786" lon="-0.4309">
        <ele>153.273</ele>
        <time>2016-08-16T08:28:51Z</time>
      </trkpt>
      <trkpt lat="48.19803" lon="-0.43095">
        <ele>153.485</ele>
        <time>2016-08-16T08:28:59Z</time>
      </trkpt>
      <trkpt lat="48.19822" lon="-0.43098">
        <ele>153.953</ele>
        <time>2016-08-16T08:29:08Z</time>
      </trkpt>
      <trkpt lat="48.19836" lon="-0.431">
        <ele>154.281</ele>
        <time>2016-08-16T08:29:13Z</time>
      </trkpt>
      <trkpt lat="48.19856" lon="-0.43109">
        <ele>154.412</ele>
        <time>2016-08-16T08:29:20Z</time>
      </trkpt>
      <trkpt lat="48.19872" lon="-0.43117">
        <ele>153.62</ele>
        <time>2016-08-16T08:29:27Z</time>
      </trkpt>
      <trkpt lat="48.19882" lon="-0.43135">
        <ele>153.026</ele>
        <time>2016-08-16T08:29:35Z</time>
      </trkpt>
      <trkpt lat="48.19886" lon="-0.43162">
        <ele>152.924</ele>
        <time>2016-08-16T08:29:47Z</time>
      </trkpt>
      <trkpt lat="48.19886" lon="-0.43162">
        <ele>152.924</ele>
        <time>2016-08-16T08:29:54Z</time>
      </trkpt>
      <trkpt lat="48.19908" lon="-0.43154">
        <ele>155.701</ele>
        <time>2016-08-16T08:30:48Z</time>
      </trkpt>
      <trkpt lat="48.19932" lon="-0.43173">
        <ele>156.079</ele>
        <time>2016-08-16T08:30:59Z</time>
      </trkpt>
      <trkpt lat="48.19949" lon="-0.43192">
        <ele>155.479</ele>
        <time>2016-08-16T08:31:07Z</time>
      </trkpt>
      <trkpt lat="48.19963" lon="-0.43205">
        <ele>155.024</ele>
        <time>2016-08-16T08:31:13Z</time>
      </trkpt>
      <trkpt lat="48.19976" lon="-0.43221">
        <ele>154.476</ele>
        <time>2016-08-16T08:31:19Z</time>
      </trkpt>
      <trkpt lat="48.19988" lon="-0.43236">
        <ele>154.087</ele>
        <time>2016-08-16T08:31:24Z</time>
      </trkpt>
      <trkpt lat="48.20003" lon="-0.43255">
        <ele>153.713</ele>
        <time>2016-08-16T08:31:32Z</time>
      </trkpt>
      <trkpt lat="48.20018" lon="-0.4328">
        <ele>153.204</ele>
        <time>2016-08-16T08:31:40Z</time>
      </trkpt>
      <trkpt lat="48.20036" lon="-0.43303">
        <ele>152.165</ele>
        <time>2016-08-16T08:31:49Z</time>
      </trkpt>
      <trkpt lat="48.20061" lon="-0.43334">
        <ele>151.587</ele>
        <time>2016-08-16T08:32:00Z</time>
      </trkpt>
      <trkpt lat="48.20075" lon="-0.43351">
        <ele>151.264</ele>
        <time>2016-08-16T08:32:07Z</time>
      </trkpt>
      <trkpt lat="48.20094" lon="-0.43377">
        <ele>151.348</ele>
        <time>2016-08-16T08:32:14Z</time>
      </trkpt>
      <trkpt lat="48.20105" lon="-0.4339">
        <ele>151.621</ele>
        <time>2016-08-16T08:32:19Z</time>
      </trkpt>
      <trkpt lat="48.2012" lon="-0.4341">
        <ele>151.348</ele>
        <time>2016-08-16T08:32:27Z</time>
      </trkpt>
      <trkpt lat="48.20136" lon="-0.43428">
        <ele>151.703</ele>
        <time>2016-08-16T08:32:35Z</time>
      </trkpt>
      <trkpt lat="48.20142" lon="-0.43436">
        <ele>151.847</ele>
        <time>2016-08-16T08:32:38Z</time>
      </trkpt>
      <trkpt lat="48.2017" lon="-0.43479">
        <ele>152.21</ele>
        <time>2016-08-16T08:36:10Z</time>
      </trkpt>
      <trkpt lat="48.20192" lon="-0.43499">
        <ele>152.805</ele>
        <time>2016-08-16T08:36:23Z</time>
      </trkpt>
      <trkpt lat="48.20207" lon="-0.43521">
        <ele>152.421</ele>
        <time>2016-08-16T08:36:34Z</time>
      </trkpt>
      <trkpt lat="48.20223" lon="-0.43538">
        <ele>151.258</ele>
        <time>2016-08-16T08:36:42Z</time>
      </trkpt>
      <trkpt lat="48.20238" lon="-0.43557">
        <ele>151.183</ele>
        <time>2016-08-16T08:36:51Z</time>
      </trkpt>
      <trkpt lat="48.20252" lon="-0.43577">
        <ele>150.722</ele>
        <time>2016-08-16T08:37:00Z</time>
      </trkpt>
      <trkpt lat="48.20267" lon="-0.43594">
        <ele>150.12</ele>
        <time>2016-08-16T08:37:07Z</time>
      </trkpt>
      <trkpt lat="48.20285" lon="-0.43601">
        <ele>149.814</ele>
        <time>2016-08-16T08:37:15Z</time>
      </trkpt>
      <trkpt lat="48.20307" lon="-0.43607">
        <ele>150.111</ele>
        <time>2016-08-16T08:37:24Z</time>
      </trkpt>
      <trkpt lat="48.2032" lon="-0.43611">
        <ele>149.996</ele>
        <time>2016-08-16T08:37:30Z</time>
      </trkpt>
      <trkpt lat="48.20353" lon="-0.43595">
        <ele>149.454</ele>
        <time>2016-08-16T08:37:43Z</time>
      </trkpt>
      <trkpt lat="48.20364" lon="-0.43592">
        <ele>149.483</ele>
        <time>2016-08-16T08:37:48Z</time>
      </trkpt>
      <trkpt lat="48.20383" lon="-0.43593">
        <ele>149.753</ele>
        <time>2016-08-16T08:37:56Z</time>
      </trkpt>
      <trkpt lat="48.20403" lon="-0.43592">
        <ele>149.418</ele>
        <time>2016-08-16T08:38:04Z</time>
      </trkpt>
      <trkpt lat="48.2042" lon="-0.43588">
        <ele>149.264</ele>
        <time>2016-08-16T08:38:11Z</time>
      </trkpt>
      <trkpt lat="48.20435" lon="-0.43579">
        <ele>149.592</ele>
        <time>2016-08-16T08:38:17Z</time>
      </trkpt>
      <trkpt lat="48.20449" lon="-0.43559">
        <ele>149.235</ele>
        <time>2016-08-16T08:38:27Z</time>
      </trkpt>
      <trkpt lat="48.20466" lon="-0.4353">
        <ele>148.554</ele>
        <time>2016-08-16T08:38:40Z</time>
      </trkpt>
      <trkpt lat="48.20478" lon="-0.43505">
        <ele>148.293</ele>
        <time>2016-08-16T08:38:47Z</time>
      </trkpt>
      <trkpt lat="48.2049" lon="-0.43488">
        <ele>148.092</ele>
        <time>2016-08-16T08:38:52Z</time>
      </trkpt>
      <trkpt lat="48.205" lon="-0.43475">
        <ele>148.241</ele>
        <time>2016-08-16T08:38:57Z</time>
      </trkpt>
      <trkpt lat="48.20515" lon="-0.43447">
        <ele>148.154</ele>
        <time>2016-08-16T08:39:05Z</time>
      </trkpt>
      <trkpt lat="48.20536" lon="-0.43422">
        <ele>148.32</ele>
        <time>2016-08-16T08:39:13Z</time>
      </trkpt>
      <trkpt lat="48.20551" lon="-0.43402">
        <ele>148.904</ele>
        <time>2016-08-16T08:39:21Z</time>
      </trkpt>
      <trkpt lat="48.2056" lon="-0.43387">
        <ele>148.345</ele>
        <time>2016-08-16T08:39:27Z</time>
      </trkpt>
      <trkpt lat="48.20583" lon="-0.43349">
        <ele>147.542</ele>
        <time>2016-08-16T08:39:39Z</time>
      </trkpt>
      <trkpt lat="48.20584" lon="-0.43325">
        <ele>148.314</ele>
        <time>2016-08-16T08:39:44Z</time>
      </trkpt>
      <trkpt lat="48.20596" lon="-0.4329">
        <ele>153.316</ele>
        <time>2016-08-16T08:40:27Z</time>
      </trkpt>
      <trkpt lat="48.20604" lon="-0.4327">
        <ele>155.47</ele>
        <time>2016-08-16T08:40:32Z</time>
      </trkpt>
      <trkpt lat="48.20618" lon="-0.43241">
        <ele>158.442</ele>
        <time>2016-08-16T08:40:41Z</time>
      </trkpt>
      <trkpt lat="48.20633" lon="-0.43195">
        <ele>161.931</ele>
        <time>2016-08-16T08:40:55Z</time>
      </trkpt>
      <trkpt lat="48.20643" lon="-0.43174">
        <ele>162.832</ele>
        <time>2016-08-16T08:41:07Z</time>
      </trkpt>
      <trkpt lat="48.20647" lon="-0.43158">
        <ele>163.19</ele>
        <time>2016-08-16T08:41:16Z</time>
      </trkpt>
      <trkpt lat="48.20661" lon="-0.43124">
        <ele>163.87</ele>
        <time>2016-08-16T08:41:29Z</time>
      </trkpt>
      <trkpt lat="48.2067" lon="-0.43093">
        <ele>163.134</ele>
        <time>2016-08-16T08:41:38Z</time>
      </trkpt>
      <trkpt lat="48.20679" lon="-0.43059">
        <ele>161.552</ele>
        <time>2016-08-16T08:41:47Z</time>
      </trkpt>
      <trkpt lat="48.20688" lon="-0.43028">
        <ele>159.679</ele>
        <time>2016-08-16T08:41:55Z</time>
      </trkpt>
      <trkpt lat="48.20697" lon="-0.42993">
        <ele>159.769</ele>
        <time>2016-08-16T08:42:03Z</time>
      </trkpt>
      <trkpt lat="48.20701" lon="-0.42964">
        <ele>161.146</ele>
        <time>2016-08-16T08:42:08Z</time>
      </trkpt>
      <trkpt lat="48.20709" lon="-0.42937">
        <ele>162.814</ele>
        <time>2016-08-16T08:42:13Z</time>
      </trkpt>
      <trkpt lat="48.20713" lon="-0.42911">
        <ele>163.969</ele>
        <time>2016-08-16T08:42:20Z</time>
      </trkpt>
      <trkpt lat="48.20726" lon="-0.42865">
        <ele>163.656</ele>
        <time>2016-08-16T08:42:29Z</time>
      </trkpt>
      <trkpt lat="48.20734" lon="-0.42841">
        <ele>162.968</ele>
        <time>2016-08-16T08:42:35Z</time>
      </trkpt>
      <trkpt lat="48.20736" lon="-0.42826">
        <ele>162.415</ele>
        <time>2016-08-16T08:42:40Z</time>
      </trkpt>
      <trkpt lat="48.20724" lon="-0.428">
        <ele>161.381</ele>
        <time>2016-08-16T08:42:50Z</time>
      </trkpt>
      <trkpt lat="48.20733" lon="-0.42759">
        <ele>161.203</ele>
        <time>2016-08-16T08:42:59Z</time>
      </trkpt>
      <trkpt lat="48.20744" lon="-0.42731">
        <ele>161.392</ele>
        <time>2016-08-16T08:43:06Z</time>
      </trkpt>
      <trkpt lat="48.20742" lon="-0.42701">
        <ele>160.653</ele>
        <time>2016-08-16T08:43:12Z</time>
      </trkpt>
      <trkpt lat="48.20729" lon="-0.42676">
        <ele>159.023</ele>
        <time>2016-08-16T08:43:21Z</time>
      </trkpt>
      <trkpt lat="48.20717" lon="-0.42682">
        <ele>157.783</ele>
        <time>2016-08-16T08:43:29Z</time>
      </trkpt>
      <trkpt lat="48.20687" lon="-0.42684">
        <ele>153.391</ele>
        <time>2016-08-16T08:43:40Z</time>
      </trkpt>
      <trkpt lat="48.20658" lon="-0.42688">
        <ele>149.918</ele>
        <time>2016-08-16T08:43:50Z</time>
      </trkpt>
      <trkpt lat="48.20639" lon="-0.42693">
        <ele>148.845</ele>
        <time>2016-08-16T08:43:56Z</time>
      </trkpt>
      <trkpt lat="48.20612" lon="-0.42705">
        <ele>146.958</ele>
        <time>2016-08-16T08:44:03Z</time>
      </trkpt>
      <trkpt lat="48.20588" lon="-0.42708">
        <ele>145.01</ele>
        <time>2016-08-16T08:44:10Z</time>
      </trkpt>
      <trkpt lat="48.20576" lon="-0.42689">
        <ele>143.145</ele>
        <time>2016-08-16T08:44:17Z</time>
      </trkpt>
      <trkpt lat="48.20569" lon="-0.42666">
        <ele>142.938</ele>
        <time>2016-08-16T08:44:24Z</time>
      </trkpt>
      <trkpt lat="48.2056" lon="-0.42641">
        <ele>143.699</ele>
        <time>2016-08-16T08:44:30Z</time>
      </trkpt>
      <trkpt lat="48.20553" lon="-0.42616">
        <ele>144.676</ele>
        <time>2016-08-16T08:44:36Z</time>
      </trkpt>
      <trkpt lat="48.20542" lon="-0.42578">
        <ele>145.884</ele>
        <time>2016-08-16T08:44:44Z</time>
      </trkpt>
      <trkpt lat="48.20532" lon="-0.42539">
        <ele>147.195</ele>
        <time>2016-08-16T08:44:53Z</time>
      </trkpt>
      <trkpt lat="48.20527" lon="-0.425">
        <ele>148.26</ele>
        <time>2016-08-16T08:45:01Z</time>
      </trkpt>
      <trkpt lat="48.20524" lon="-0.4248">
        <ele>148.641</ele>
        <time>2016-08-16T08:45:06Z</time>
      </trkpt>
      <trkpt lat="48.20516" lon="-0.42445">
        <ele>148.78</ele>
        <time>2016-08-16T08:45:13Z</time>
      </trkpt>
      <trkpt lat="48.20512" lon="-0.42418">
        <ele>149.109</ele>
        <time>2016-08-16T08:45:19Z</time>
      </trkpt>
      <trkpt lat="48.20506" lon="-0.42387">
        <ele>149.529</ele>
        <time>2016-08-16T08:45:27Z</time>
      </trkpt>
      <trkpt lat="48.20501" lon="-0.4237">
        <ele>149.526</ele>
        <time>2016-08-16T08:45:32Z</time>
      </trkpt>
      <trkpt lat="48.20495" lon="-0.42336">
        <ele>149.287</ele>
        <time>2016-08-16T08:45:41Z</time>
      </trkpt>
      <trkpt lat="48.20488" lon="-0.4229">
        <ele>148.498</ele>
        <time>2016-08-16T08:45:49Z</time>
      </trkpt>
      <trkpt lat="48.20479" lon="-0.42256">
        <ele>148.382</ele>
        <time>2016-08-16T08:45:56Z</time>
      </trkpt>
      <trkpt lat="48.2046" lon="-0.4224">
        <ele>148.402</ele>
        <time>2016-08-16T08:46:03Z</time>
      </trkpt>
      <trkpt lat="48.20446" lon="-0.42226">
        <ele>149.239</ele>
        <time>2016-08-16T08:46:10Z</time>
      </trkpt>
      <trkpt lat="48.20445" lon="-0.42205">
        <ele>150.38</ele>
        <time>2016-08-16T08:46:17Z</time>
      </trkpt>
      <trkpt lat="48.20445" lon="-0.42167">
        <ele>151.692</ele>
        <time>2016-08-16T08:46:27Z</time>
      </trkpt>
      <trkpt lat="48.20444" lon="-0.42154">
        <ele>152.205</ele>
        <time>2016-08-16T08:46:34Z</time>
      </trkpt>
      <trkpt lat="48.20443" lon="-0.42146">
        <ele>153.616</ele>
        <time>2016-08-16T08:46:47Z</time>
      </trkpt>
      <trkpt lat="48.20467" lon="-0.42136">
        <ele>153.619</ele>
        <time>2016-08-16T08:47:06Z</time>
      </trkpt>
      <trkpt lat="48.20482" lon="-0.42133">
        <ele>154.469</ele>
        <time>2016-08-16T08:47:11Z</time>
      </trkpt>
      <trkpt lat="48.20506" lon="-0.42129">
        <ele>155.138</ele>
        <time>2016-08-16T08:47:18Z</time>
      </trkpt>
      <trkpt lat="48.20526" lon="-0.42127">
        <ele>155.788</ele>
        <time>2016-08-16T08:47:24Z</time>
      </trkpt>
      <trkpt lat="48.20548" lon="-0.42123">
        <ele>156.023</ele>
        <time>2016-08-16T08:47:31Z</time>
      </trkpt>
      <trkpt lat="48.20567" lon="-0.42121">
        <ele>156.159</ele>
        <time>2016-08-16T08:47:37Z</time>
      </trkpt>
      <trkpt lat="48.2059" lon="-0.42119">
        <ele>157.352</ele>
        <time>2016-08-16T08:47:43Z</time>
      </trkpt>
      <trkpt lat="48.20603" lon="-0.42119">
        <ele>157.263</ele>
        <time>2016-08-16T08:47:46Z</time>
      </trkpt>
      <trkpt lat="48.20614" lon="-0.42118">
        <ele>157.394</ele>
        <time>2016-08-16T08:47:49Z</time>
      </trkpt>
      <trkpt lat="48.20637" lon="-0.42121">
        <ele>157.554</ele>
        <time>2016-08-16T08:47:55Z</time>
      </trkpt>
      <trkpt lat="48.2066" lon="-0.42125">
        <ele>157.429</ele>
        <time>2016-08-16T08:48:01Z</time>
      </trkpt>
      <trkpt lat="48.20684" lon="-0.42132">
        <ele>157.096</ele>
        <time>2016-08-16T08:48:08Z</time>
      </trkpt>
      <trkpt lat="48.20708" lon="-0.42135">
        <ele>156.881</ele>
        <time>2016-08-16T08:48:15Z</time>
      </trkpt>
      <trkpt lat="48.20742" lon="-0.42133">
        <ele>156.13</ele>
        <time>2016-08-16T08:48:24Z</time>
      </trkpt>
      <trkpt lat="48.2076" lon="-0.42128">
        <ele>156.437</ele>
        <time>2016-08-16T08:48:29Z</time>
      </trkpt>
      <trkpt lat="48.20777" lon="-0.42121">
        <ele>156.535</ele>
        <time>2016-08-16T08:48:34Z</time>
      </trkpt>
      <trkpt lat="48.20788" lon="-0.42116">
        <ele>156.58</ele>
        <time>2016-08-16T08:48:37Z</time>
      </trkpt>
      <trkpt lat="48.20804" lon="-0.42109">
        <ele>156.62</ele>
        <time>2016-08-16T08:48:42Z</time>
      </trkpt>
      <trkpt lat="48.20828" lon="-0.42099">
        <ele>156.732</ele>
        <time>2016-08-16T08:48:49Z</time>
      </trkpt>
      <trkpt lat="48.20841" lon="-0.42093">
        <ele>156.709</ele>
        <time>2016-08-16T08:48:53Z</time>
      </trkpt>
      <trkpt lat="48.20858" lon="-0.42086">
        <ele>156.775</ele>
        <time>2016-08-16T08:48:59Z</time>
      </trkpt>
      <trkpt lat="48.2088" lon="-0.42076">
        <ele>157.07</ele>
        <time>2016-08-16T08:49:06Z</time>
      </trkpt>
      <trkpt lat="48.20894" lon="-0.42071">
        <ele>157.204</ele>
        <time>2016-08-16T08:49:10Z</time>
      </trkpt>
      <trkpt lat="48.2091" lon="-0.42061">
        <ele>157.56</ele>
        <time>2016-08-16T08:49:16Z</time>
      </trkpt>
      <trkpt lat="48.2092" lon="-0.42056">
        <ele>157.638</ele>
        <time>2016-08-16T08:49:19Z</time>
      </trkpt>
      <trkpt lat="48.20943" lon="-0.42047">
        <ele>157.859</ele>
        <time>2016-08-16T08:49:26Z</time>
      </trkpt>
      <trkpt lat="48.20965" lon="-0.42037">
        <ele>158.09</ele>
        <time>2016-08-16T08:49:33Z</time>
      </trkpt>
      <trkpt lat="48.20982" lon="-0.42029">
        <ele>158.043</ele>
        <time>2016-08-16T08:49:38Z</time>
      </trkpt>
      <trkpt lat="48.21002" lon="-0.42021">
        <ele>158.005</ele>
        <time>2016-08-16T08:49:44Z</time>
      </trkpt>
      <trkpt lat="48.21021" lon="-0.42012">
        <ele>158.263</ele>
        <time>2016-08-16T08:49:50Z</time>
      </trkpt>
      <trkpt lat="48.21041" lon="-0.42005">
        <ele>158.591</ele>
        <time>2016-08-16T08:49:56Z</time>
      </trkpt>
      <trkpt lat="48.21061" lon="-0.41998">
        <ele>158.6</ele>
        <time>2016-08-16T08:50:03Z</time>
      </trkpt>
      <trkpt lat="48.21088" lon="-0.41996">
        <ele>158.612</ele>
        <time>2016-08-16T08:50:12Z</time>
      </trkpt>
      <trkpt lat="48.21107" lon="-0.41996">
        <ele>158.792</ele>
        <time>2016-08-16T08:50:18Z</time>
      </trkpt>
      <trkpt lat="48.21117" lon="-0.41996">
        <ele>158.972</ele>
        <time>2016-08-16T08:50:22Z</time>
      </trkpt>
      <trkpt lat="48.21133" lon="-0.41997">
        <ele>159.27</ele>
        <time>2016-08-16T08:50:29Z</time>
      </trkpt>
      <trkpt lat="48.21133" lon="-0.41997">
        <ele>159.27</ele>
        <time>2016-08-16T08:50:36Z</time>
      </trkpt>
      <trkpt lat="48.21163" lon="-0.42002">
        <ele>161.346</ele>
        <time>2016-08-16T08:51:12Z</time>
      </trkpt>
      <trkpt lat="48.21179" lon="-0.42005">
        <ele>161.29</ele>
        <time>2016-08-16T08:51:17Z</time>
      </trkpt>
      <trkpt lat="48.21209" lon="-0.42006">
        <ele>160.927</ele>
        <time>2016-08-16T08:51:27Z</time>
      </trkpt>
      <trkpt lat="48.21228" lon="-0.42008">
        <ele>161.156</ele>
        <time>2016-08-16T08:51:33Z</time>
      </trkpt>
      <trkpt lat="48.21252" lon="-0.42009">
        <ele>161.126</ele>
        <time>2016-08-16T08:51:41Z</time>
      </trkpt>
      <trkpt lat="48.21277" lon="-0.42013">
        <ele>160.731</ele>
        <time>2016-08-16T08:51:49Z</time>
      </trkpt>
      <trkpt lat="48.21295" lon="-0.42019">
        <ele>160.974</ele>
        <time>2016-08-16T08:51:55Z</time>
      </trkpt>
      <trkpt lat="48.21304" lon="-0.42021">
        <ele>161.151</ele>
        <time>2016-08-16T08:51:58Z</time>
      </trkpt>
      <trkpt lat="48.21325" lon="-0.42027">
        <ele>161.239</ele>
        <time>2016-08-16T08:52:05Z</time>
      </trkpt>
      <trkpt lat="48.21341" lon="-0.42032">
        <ele>161.497</ele>
        <time>2016-08-16T08:52:11Z</time>
      </trkpt>
      <trkpt lat="48.21355" lon="-0.42037">
        <ele>161.559</ele>
        <time>2016-08-16T08:52:16Z</time>
      </trkpt>
      <trkpt lat="48.21365" lon="-0.42041">
        <ele>161.699</ele>
        <time>2016-08-16T08:52:19Z</time>
      </trkpt>
      <trkpt lat="48.21387" lon="-0.42048">
        <ele>161.71</ele>
        <time>2016-08-16T08:52:27Z</time>
      </trkpt>
      <trkpt lat="48.21402" lon="-0.42054">
        <ele>161.52</ele>
        <time>2016-08-16T08:52:32Z</time>
      </trkpt>
      <trkpt lat="48.21422" lon="-0.42063">
        <ele>161.607</ele>
        <time>2016-08-16T08:52:39Z</time>
      </trkpt>
      <trkpt lat="48.21438" lon="-0.42066">
        <ele>161.497</ele>
        <time>2016-08-16T08:52:45Z</time>
      </trkpt>
      <trkpt lat="48.21457" lon="-0.42072">
        <ele>161.85</ele>
        <time>2016-08-16T08:52:51Z</time>
      </trkpt>
      <trkpt lat="48.21477" lon="-0.42077">
        <ele>162.417</ele>
        <time>2016-08-16T08:52:58Z</time>
      </trkpt>
      <trkpt lat="48.21498" lon="-0.42086">
        <ele>163.147</ele>
        <time>2016-08-16T08:53:06Z</time>
      </trkpt>
      <trkpt lat="48.21519" lon="-0.42093">
        <ele>163.923</ele>
        <time>2016-08-16T08:53:13Z</time>
      </trkpt>
      <trkpt lat="48.21534" lon="-0.42097">
        <ele>164.424</ele>
        <time>2016-08-16T08:53:18Z</time>
      </trkpt>
      <trkpt lat="48.21556" lon="-0.42104">
        <ele>164.411</ele>
        <time>2016-08-16T08:53:25Z</time>
      </trkpt>
      <trkpt lat="48.21575" lon="-0.42112">
        <ele>164.382</ele>
        <time>2016-08-16T08:53:32Z</time>
      </trkpt>
      <trkpt lat="48.21596" lon="-0.42117">
        <ele>164.565</ele>
        <time>2016-08-16T08:53:39Z</time>
      </trkpt>
      <trkpt lat="48.21611" lon="-0.42123">
        <ele>164.882</ele>
        <time>2016-08-16T08:53:45Z</time>
      </trkpt>
      <trkpt lat="48.21625" lon="-0.42128">
        <ele>164.972</ele>
        <time>2016-08-16T08:53:50Z</time>
      </trkpt>
      <trkpt lat="48.21646" lon="-0.42139">
        <ele>164.804</ele>
        <time>2016-08-16T08:53:57Z</time>
      </trkpt>
      <trkpt lat="48.21658" lon="-0.42145">
        <ele>164.738</ele>
        <time>2016-08-16T08:54:00Z</time>
      </trkpt>
      <trkpt lat="48.21678" lon="-0.42154">
        <ele>164.881</ele>
        <time>2016-08-16T08:54:06Z</time>
      </trkpt>
      <trkpt lat="48.21696" lon="-0.42163">
        <ele>165.181</ele>
        <time>2016-08-16T08:54:12Z</time>
      </trkpt>
      <trkpt lat="48.21707" lon="-0.42171">
        <ele>165.576</ele>
        <time>2016-08-16T08:54:16Z</time>
      </trkpt>
      <trkpt lat="48.21727" lon="-0.42186">
        <ele>165.958</ele>
        <time>2016-08-16T08:54:23Z</time>
      </trkpt>
      <trkpt lat="48.21746" lon="-0.42201">
        <ele>166.238</ele>
        <time>2016-08-16T08:54:30Z</time>
      </trkpt>
      <trkpt lat="48.21766" lon="-0.42217">
        <ele>166.535</ele>
        <time>2016-08-16T08:54:37Z</time>
      </trkpt>
      <trkpt lat="48.21774" lon="-0.42223">
        <ele>166.706</ele>
        <time>2016-08-16T08:54:40Z</time>
      </trkpt>
      <trkpt lat="48.21788" lon="-0.42234">
        <ele>167.004</ele>
        <time>2016-08-16T08:54:45Z</time>
      </trkpt>
      <trkpt lat="48.21814" lon="-0.42254">
        <ele>167.025</ele>
        <time>2016-08-16T08:54:54Z</time>
      </trkpt>
      <trkpt lat="48.21831" lon="-0.42269">
        <ele>167.198</ele>
        <time>2016-08-16T08:55:00Z</time>
      </trkpt>
      <trkpt lat="48.21845" lon="-0.4228">
        <ele>167.287</ele>
        <time>2016-08-16T08:55:05Z</time>
      </trkpt>
      <trkpt lat="48.21861" lon="-0.42292">
        <ele>167.519</ele>
        <time>2016-08-16T08:55:11Z</time>
      </trkpt>
      <trkpt lat="48.21882" lon="-0.4231">
        <ele>167.719</ele>
        <time>2016-08-16T08:55:20Z</time>
      </trkpt>
      <trkpt lat="48.21897" lon="-0.42325">
        <ele>167.911</ele>
        <time>2016-08-16T08:55:26Z</time>
      </trkpt>
      <trkpt lat="48.21913" lon="-0.4234">
        <ele>168.298</ele>
        <time>2016-08-16T08:55:32Z</time>
      </trkpt>
      <trkpt lat="48.21935" lon="-0.42356">
        <ele>168.939</ele>
        <time>2016-08-16T08:55:40Z</time>
      </trkpt>
      <trkpt lat="48.21954" lon="-0.4237">
        <ele>169.067</ele>
        <time>2016-08-16T08:55:47Z</time>
      </trkpt>
      <trkpt lat="48.21963" lon="-0.42379">
        <ele>169.261</ele>
        <time>2016-08-16T08:55:51Z</time>
      </trkpt>
      <trkpt lat="48.21981" lon="-0.42392">
        <ele>169.564</ele>
        <time>2016-08-16T08:55:58Z</time>
      </trkpt>
      <trkpt lat="48.22003" lon="-0.42413">
        <ele>169.882</ele>
        <time>2016-08-16T08:56:07Z</time>
      </trkpt>
      <trkpt lat="48.22022" lon="-0.42431">
        <ele>170.572</ele>
        <time>2016-08-16T08:56:15Z</time>
      </trkpt>
      <trkpt lat="48.22042" lon="-0.42447">
        <ele>170.582</ele>
        <time>2016-08-16T08:56:23Z</time>
      </trkpt>
      <trkpt lat="48.22058" lon="-0.42461">
        <ele>170.729</ele>
        <time>2016-08-16T08:56:29Z</time>
      </trkpt>
      <trkpt lat="48.22076" lon="-0.42475">
        <ele>170.626</ele>
        <time>2016-08-16T08:56:37Z</time>
      </trkpt>
      <trkpt lat="48.22091" lon="-0.42488">
        <ele>171.102</ele>
        <time>2016-08-16T08:56:44Z</time>
      </trkpt>
      <trkpt lat="48.22117" lon="-0.42511">
        <ele>172.346</ele>
        <time>2016-08-16T08:56:53Z</time>
      </trkpt>
      <trkpt lat="48.22139" lon="-0.42528">
        <ele>173.243</ele>
        <time>2016-08-16T08:57:02Z</time>
      </trkpt>
      <trkpt lat="48.22157" lon="-0.42537">
        <ele>173.037</ele>
        <time>2016-08-16T08:57:09Z</time>
      </trkpt>
      <trkpt lat="48.22174" lon="-0.42548">
        <ele>173.408</ele>
        <time>2016-08-16T08:57:14Z</time>
      </trkpt>
      <trkpt lat="48.22191" lon="-0.42565">
        <ele>174.251</ele>
        <time>2016-08-16T08:57:21Z</time>
      </trkpt>
      <trkpt lat="48.22208" lon="-0.42579">
        <ele>175.395</ele>
        <time>2016-08-16T08:57:27Z</time>
      </trkpt>
      <trkpt lat="48.22222" lon="-0.42591">
        <ele>176.5</ele>
        <time>2016-08-16T08:57:33Z</time>
      </trkpt>
      <trkpt lat="48.22238" lon="-0.4261">
        <ele>176.255</ele>
        <time>2016-08-16T08:57:40Z</time>
      </trkpt>
      <trkpt lat="48.22263" lon="-0.42633">
        <ele>175.052</ele>
        <time>2016-08-16T08:57:51Z</time>
      </trkpt>
      <trkpt lat="48.22279" lon="-0.42644">
        <ele>174.581</ele>
        <time>2016-08-16T08:57:57Z</time>
      </trkpt>
      <trkpt lat="48.223" lon="-0.42659">
        <ele>174.588</ele>
        <time>2016-08-16T08:58:05Z</time>
      </trkpt>
      <trkpt lat="48.22323" lon="-0.42678">
        <ele>174.894</ele>
        <time>2016-08-16T08:58:13Z</time>
      </trkpt>
      <trkpt lat="48.2234" lon="-0.4269">
        <ele>174.981</ele>
        <time>2016-08-16T08:58:18Z</time>
      </trkpt>
      <trkpt lat="48.22354" lon="-0.42703">
        <ele>175.648</ele>
        <time>2016-08-16T08:58:23Z</time>
      </trkpt>
      <trkpt lat="48.22381" lon="-0.42726">
        <ele>182</ele>
        <time>2016-08-16T08:58:32Z</time>
      </trkpt>
      <trkpt lat="48.22408" lon="-0.42746">
        <ele>185.316</ele>
        <time>2016-08-16T08:58:39Z</time>
      </trkpt>
      <trkpt lat="48.22438" lon="-0.42767">
        <ele>186.021</ele>
        <time>2016-08-16T08:58:45Z</time>
      </trkpt>
      <trkpt lat="48.22461" lon="-0.42788">
        <ele>184.991</ele>
        <time>2016-08-16T08:58:50Z</time>
      </trkpt>
      <trkpt lat="48.22475" lon="-0.428">
        <ele>184.83</ele>
        <time>2016-08-16T08:58:53Z</time>
      </trkpt>
      <trkpt lat="48.22501" lon="-0.42823">
        <ele>182.152</ele>
        <time>2016-08-16T08:59:00Z</time>
      </trkpt>
      <trkpt lat="48.22516" lon="-0.42834">
        <ele>181.589</ele>
        <time>2016-08-16T08:59:06Z</time>
      </trkpt>
      <trkpt lat="48.22529" lon="-0.42846">
        <ele>180.982</ele>
        <time>2016-08-16T08:59:11Z</time>
      </trkpt>
      <trkpt lat="48.22548" lon="-0.42863">
        <ele>180.375</ele>
        <time>2016-08-16T08:59:18Z</time>
      </trkpt>
      <trkpt lat="48.22569" lon="-0.42877">
        <ele>179.881</ele>
        <time>2016-08-16T08:59:25Z</time>
      </trkpt>
      <trkpt lat="48.22597" lon="-0.42892">
        <ele>180.119</ele>
        <time>2016-08-16T08:59:32Z</time>
      </trkpt>
      <trkpt lat="48.22618" lon="-0.429">
        <ele>180.589</ele>
        <time>2016-08-16T08:59:38Z</time>
      </trkpt>
      <trkpt lat="48.22643" lon="-0.42911">
        <ele>181.295</ele>
        <time>2016-08-16T08:59:45Z</time>
      </trkpt>
      <trkpt lat="48.22674" lon="-0.42927">
        <ele>183.071</ele>
        <time>2016-08-16T08:59:54Z</time>
      </trkpt>
      <trkpt lat="48.22697" lon="-0.42939">
        <ele>183.737</ele>
        <time>2016-08-16T09:00:01Z</time>
      </trkpt>
      <trkpt lat="48.22718" lon="-0.4295">
        <ele>184.88</ele>
        <time>2016-08-16T09:00:07Z</time>
      </trkpt>
      <trkpt lat="48.22746" lon="-0.42963">
        <ele>185.552</ele>
        <time>2016-08-16T09:00:15Z</time>
      </trkpt>
      <trkpt lat="48.22769" lon="-0.42966">
        <ele>187.09</ele>
        <time>2016-08-16T09:00:21Z</time>
      </trkpt>
      <trkpt lat="48.22794" lon="-0.42963">
        <ele>187.151</ele>
        <time>2016-08-16T09:00:28Z</time>
      </trkpt>
      <trkpt lat="48.22817" lon="-0.42958">
        <ele>187.059</ele>
        <time>2016-08-16T09:00:34Z</time>
      </trkpt>
      <trkpt lat="48.22842" lon="-0.42956">
        <ele>187.758</ele>
        <time>2016-08-16T09:00:40Z</time>
      </trkpt>
      <trkpt lat="48.22853" lon="-0.42957">
        <ele>187.566</ele>
        <time>2016-08-16T09:00:43Z</time>
      </trkpt>
      <trkpt lat="48.22871" lon="-0.42957">
        <ele>187.091</ele>
        <time>2016-08-16T09:00:48Z</time>
      </trkpt>
      <trkpt lat="48.22886" lon="-0.42956">
        <ele>187.033</ele>
        <time>2016-08-16T09:00:52Z</time>
      </trkpt>
      <trkpt lat="48.22909" lon="-0.4295">
        <ele>186.589</ele>
        <time>2016-08-16T09:00:58Z</time>
      </trkpt>
      <trkpt lat="48.22926" lon="-0.42947">
        <ele>186.537</ele>
        <time>2016-08-16T09:01:03Z</time>
      </trkpt>
      <trkpt lat="48.22935" lon="-0.42947">
        <ele>186.512</ele>
        <time>2016-08-16T09:01:06Z</time>
      </trkpt>
      <trkpt lat="48.22952" lon="-0.42946">
        <ele>186.805</ele>
        <time>2016-08-16T09:01:15Z</time>
      </trkpt>
      <trkpt lat="48.22972" lon="-0.42944">
        <ele>186.99</ele>
        <time>2016-08-16T09:01:23Z</time>
      </trkpt>
      <trkpt lat="48.22993" lon="-0.42941">
        <ele>186.739</ele>
        <time>2016-08-16T09:01:30Z</time>
      </trkpt>
      <trkpt lat="48.23012" lon="-0.42935">
        <ele>186.012</ele>
        <time>2016-08-16T09:01:35Z</time>
      </trkpt>
      <trkpt lat="48.23033" lon="-0.42924">
        <ele>185.355</ele>
        <time>2016-08-16T09:01:41Z</time>
      </trkpt>
      <trkpt lat="48.23052" lon="-0.4291">
        <ele>185.224</ele>
        <time>2016-08-16T09:01:48Z</time>
      </trkpt>
      <trkpt lat="48.23077" lon="-0.42895">
        <ele>185.275</ele>
        <time>2016-08-16T09:01:56Z</time>
      </trkpt>
      <trkpt lat="48.23096" lon="-0.42885">
        <ele>185.763</ele>
        <time>2016-08-16T09:02:01Z</time>
      </trkpt>
      <trkpt lat="48.23116" lon="-0.42872">
        <ele>186.046</ele>
        <time>2016-08-16T09:02:07Z</time>
      </trkpt>
      <trkpt lat="48.23129" lon="-0.42862">
        <ele>186.511</ele>
        <time>2016-08-16T09:02:11Z</time>
      </trkpt>
      <trkpt lat="48.2315" lon="-0.4285">
        <ele>187.245</ele>
        <time>2016-08-16T09:02:17Z</time>
      </trkpt>
      <trkpt lat="48.23174" lon="-0.42841">
        <ele>186.86</ele>
        <time>2016-08-16T09:02:25Z</time>
      </trkpt>
      <trkpt lat="48.23189" lon="-0.42839">
        <ele>186.33</ele>
        <time>2016-08-16T09:02:30Z</time>
      </trkpt>
      <trkpt lat="48.23202" lon="-0.42846">
        <ele>185.982</ele>
        <time>2016-08-16T09:02:36Z</time>
      </trkpt>
      <trkpt lat="48.23202" lon="-0.42846">
        <ele>185.982</ele>
        <time>2016-08-16T09:02:42Z</time>
      </trkpt>
      <trkpt lat="48.23228" lon="-0.42846">
        <ele>185.41</ele>
        <time>2016-08-16T09:04:02Z</time>
      </trkpt>
      <trkpt lat="48.23254" lon="-0.42858">
        <ele>181.877</ele>
        <time>2016-08-16T09:04:09Z</time>
      </trkpt>
      <trkpt lat="48.23276" lon="-0.42864">
        <ele>181.566</ele>
        <time>2016-08-16T09:04:16Z</time>
      </trkpt>
      <trkpt lat="48.23302" lon="-0.42872">
        <ele>180.458</ele>
        <time>2016-08-16T09:04:24Z</time>
      </trkpt>
      <trkpt lat="48.23323" lon="-0.42877">
        <ele>180.227</ele>
        <time>2016-08-16T09:04:30Z</time>
      </trkpt>
      <trkpt lat="48.23347" lon="-0.42882">
        <ele>179.666</ele>
        <time>2016-08-16T09:04:37Z</time>
      </trkpt>
      <trkpt lat="48.23364" lon="-0.42888">
        <ele>180.331</ele>
        <time>2016-08-16T09:04:43Z</time>
      </trkpt>
      <trkpt lat="48.23383" lon="-0.42892">
        <ele>181.161</ele>
        <time>2016-08-16T09:04:51Z</time>
      </trkpt>
      <trkpt lat="48.23409" lon="-0.42897">
        <ele>181.823</ele>
        <time>2016-08-16T09:04:59Z</time>
      </trkpt>
      <trkpt lat="48.23431" lon="-0.42895">
        <ele>182.982</ele>
        <time>2016-08-16T09:05:05Z</time>
      </trkpt>
      <trkpt lat="48.23451" lon="-0.4289">
        <ele>185.615</ele>
        <time>2016-08-16T09:05:11Z</time>
      </trkpt>
      <trkpt lat="48.23465" lon="-0.42883">
        <ele>186.307</ele>
        <time>2016-08-16T09:05:15Z</time>
      </trkpt>
      <trkpt lat="48.23485" lon="-0.42873">
        <ele>188.835</ele>
        <time>2016-08-16T09:05:20Z</time>
      </trkpt>
      <trkpt lat="48.2351" lon="-0.42859">
        <ele>189.218</ele>
        <time>2016-08-16T09:05:27Z</time>
      </trkpt>
      <trkpt lat="48.23536" lon="-0.42847">
        <ele>191.211</ele>
        <time>2016-08-16T09:05:34Z</time>
      </trkpt>
      <trkpt lat="48.23547" lon="-0.42841">
        <ele>191.833</ele>
        <time>2016-08-16T09:05:37Z</time>
      </trkpt>
      <trkpt lat="48.23563" lon="-0.42834">
        <ele>193.056</ele>
        <time>2016-08-16T09:05:41Z</time>
      </trkpt>
      <trkpt lat="48.23589" lon="-0.42821">
        <ele>193.212</ele>
        <time>2016-08-16T09:05:47Z</time>
      </trkpt>
      <trkpt lat="48.23612" lon="-0.4281">
        <ele>193.613</ele>
        <time>2016-08-16T09:05:52Z</time>
      </trkpt>
      <trkpt lat="48.23633" lon="-0.42799">
        <ele>195.544</ele>
        <time>2016-08-16T09:05:58Z</time>
      </trkpt>
      <trkpt lat="48.23658" lon="-0.42787">
        <ele>195.152</ele>
        <time>2016-08-16T09:06:05Z</time>
      </trkpt>
      <trkpt lat="48.23676" lon="-0.42776">
        <ele>195.201</ele>
        <time>2016-08-16T09:06:10Z</time>
      </trkpt>
      <trkpt lat="48.23687" lon="-0.4277">
        <ele>195.336</ele>
        <time>2016-08-16T09:06:13Z</time>
      </trkpt>
      <trkpt lat="48.23697" lon="-0.42765">
        <ele>196.085</ele>
        <time>2016-08-16T09:06:16Z</time>
      </trkpt>
      <trkpt lat="48.23711" lon="-0.42757">
        <ele>196.868</ele>
        <time>2016-08-16T09:06:20Z</time>
      </trkpt>
      <trkpt lat="48.23733" lon="-0.42747">
        <ele>199.017</ele>
        <time>2016-08-16T09:06:26Z</time>
      </trkpt>
      <trkpt lat="48.23753" lon="-0.42738">
        <ele>199.009</ele>
        <time>2016-08-16T09:06:31Z</time>
      </trkpt>
      <trkpt lat="48.23771" lon="-0.4273">
        <ele>198.93</ele>
        <time>2016-08-16T09:06:36Z</time>
      </trkpt>
      <trkpt lat="48.23787" lon="-0.42722">
        <ele>200.496</ele>
        <time>2016-08-16T09:06:41Z</time>
      </trkpt>
      <trkpt lat="48.23812" lon="-0.42712">
        <ele>200.679</ele>
        <time>2016-08-16T09:06:47Z</time>
      </trkpt>
      <trkpt lat="48.23822" lon="-0.42707">
        <ele>200.906</ele>
        <time>2016-08-16T09:06:50Z</time>
      </trkpt>
      <trkpt lat="48.23847" lon="-0.42692">
        <ele>199.232</ele>
        <time>2016-08-16T09:06:57Z</time>
      </trkpt>
      <trkpt lat="48.23869" lon="-0.42683">
        <ele>200.616</ele>
        <time>2016-08-16T09:07:03Z</time>
      </trkpt>
      <trkpt lat="48.2389" lon="-0.42672">
        <ele>200.847</ele>
        <time>2016-08-16T09:07:09Z</time>
      </trkpt>
      <trkpt lat="48.23916" lon="-0.42657">
        <ele>201.35</ele>
        <time>2016-08-16T09:07:16Z</time>
      </trkpt>
      <trkpt lat="48.23943" lon="-0.42644">
        <ele>204.241</ele>
        <time>2016-08-16T09:07:23Z</time>
      </trkpt>
      <trkpt lat="48.23962" lon="-0.42637">
        <ele>206.618</ele>
        <time>2016-08-16T09:07:29Z</time>
      </trkpt>
      <trkpt lat="48.23973" lon="-0.42631">
        <ele>206.609</ele>
        <time>2016-08-16T09:07:32Z</time>
      </trkpt>
      <trkpt lat="48.23984" lon="-0.42626">
        <ele>207.669</ele>
        <time>2016-08-16T09:07:35Z</time>
      </trkpt>
      <trkpt lat="48.24002" lon="-0.42615">
        <ele>207.876</ele>
        <time>2016-08-16T09:07:40Z</time>
      </trkpt>
      <trkpt lat="48.24012" lon="-0.42608">
        <ele>206.723</ele>
        <time>2016-08-16T09:07:43Z</time>
      </trkpt>
      <trkpt lat="48.24032" lon="-0.4259">
        <ele>206.356</ele>
        <time>2016-08-16T09:07:49Z</time>
      </trkpt>
      <trkpt lat="48.24055" lon="-0.42559">
        <ele>206.491</ele>
        <time>2016-08-16T09:07:57Z</time>
      </trkpt>
      <trkpt lat="48.24071" lon="-0.4253">
        <ele>206.087</ele>
        <time>2016-08-16T09:08:03Z</time>
      </trkpt>
      <trkpt lat="48.24079" lon="-0.42517">
        <ele>206.046</ele>
        <time>2016-08-16T09:08:06Z</time>
      </trkpt>
      <trkpt lat="48.24098" lon="-0.42478">
        <ele>206.277</ele>
        <time>2016-08-16T09:08:14Z</time>
      </trkpt>
      <trkpt lat="48.24111" lon="-0.42452">
        <ele>206.716</ele>
        <time>2016-08-16T09:08:20Z</time>
      </trkpt>
      <trkpt lat="48.2412" lon="-0.42433">
        <ele>206.896</ele>
        <time>2016-08-16T09:08:24Z</time>
      </trkpt>
      <trkpt lat="48.24127" lon="-0.42418">
        <ele>207.666</ele>
        <time>2016-08-16T09:08:27Z</time>
      </trkpt>
      <trkpt lat="48.24134" lon="-0.42402">
        <ele>207.942</ele>
        <time>2016-08-16T09:08:30Z</time>
      </trkpt>
      <trkpt lat="48.24147" lon="-0.42375">
        <ele>207.96</ele>
        <time>2016-08-16T09:08:36Z</time>
      </trkpt>
      <trkpt lat="48.24157" lon="-0.42353">
        <ele>208.258</ele>
        <time>2016-08-16T09:08:41Z</time>
      </trkpt>
      <trkpt lat="48.24172" lon="-0.42319">
        <ele>209.251</ele>
        <time>2016-08-16T09:08:48Z</time>
      </trkpt>
      <trkpt lat="48.24188" lon="-0.42289">
        <ele>209.853</ele>
        <time>2016-08-16T09:08:55Z</time>
      </trkpt>
      <trkpt lat="48.24195" lon="-0.42272">
        <ele>210.082</ele>
        <time>2016-08-16T09:09:00Z</time>
      </trkpt>
      <trkpt lat="48.24209" lon="-0.42244">
        <ele>210.438</ele>
        <time>2016-08-16T09:09:08Z</time>
      </trkpt>
      <trkpt lat="48.24214" lon="-0.42222">
        <ele>210.804</ele>
        <time>2016-08-16T09:09:17Z</time>
      </trkpt>
      <trkpt lat="48.24214" lon="-0.42222">
        <ele>210.804</ele>
        <time>2016-08-16T09:09:24Z</time>
      </trkpt>
      <trkpt lat="48.24225" lon="-0.422">
        <ele>216.932</ele>
        <time>2016-08-16T09:12:06Z</time>
      </trkpt>
      <trkpt lat="48.2424" lon="-0.42175">
        <ele>216.897</ele>
        <time>2016-08-16T09:12:13Z</time>
      </trkpt>
      <trkpt lat="48.24255" lon="-0.42156">
        <ele>217.187</ele>
        <time>2016-08-16T09:12:19Z</time>
      </trkpt>
      <trkpt lat="48.24277" lon="-0.42136">
        <ele>217.177</ele>
        <time>2016-08-16T09:12:25Z</time>
      </trkpt>
      <trkpt lat="48.24299" lon="-0.42125">
        <ele>215.855</ele>
        <time>2016-08-16T09:12:31Z</time>
      </trkpt>
      <trkpt lat="48.24311" lon="-0.42121">
        <ele>215.095</ele>
        <time>2016-08-16T09:12:34Z</time>
      </trkpt>
      <trkpt lat="48.24323" lon="-0.42118">
        <ele>215.545</ele>
        <time>2016-08-16T09:12:37Z</time>
      </trkpt>
      <trkpt lat="48.24341" lon="-0.42113">
        <ele>216.064</ele>
        <time>2016-08-16T09:12:42Z</time>
      </trkpt>
      <trkpt lat="48.24361" lon="-0.42106">
        <ele>215.719</ele>
        <time>2016-08-16T09:12:48Z</time>
      </trkpt>
      <trkpt lat="48.24385" lon="-0.42095">
        <ele>217.124</ele>
        <time>2016-08-16T09:12:54Z</time>
      </trkpt>
      <trkpt lat="48.24408" lon="-0.42077">
        <ele>218.293</ele>
        <time>2016-08-16T09:13:01Z</time>
      </trkpt>
      <trkpt lat="48.24428" lon="-0.42054">
        <ele>219.068</ele>
        <time>2016-08-16T09:13:07Z</time>
      </trkpt>
      <trkpt lat="48.24445" lon="-0.42035">
        <ele>219.316</ele>
        <time>2016-08-16T09:13:13Z</time>
      </trkpt>
      <trkpt lat="48.24462" lon="-0.42016">
        <ele>218.777</ele>
        <time>2016-08-16T09:13:18Z</time>
      </trkpt>
      <trkpt lat="48.24472" lon="-0.42005">
        <ele>219.063</ele>
        <time>2016-08-16T09:13:21Z</time>
      </trkpt>
      <trkpt lat="48.24482" lon="-0.41994">
        <ele>219.894</ele>
        <time>2016-08-16T09:13:24Z</time>
      </trkpt>
      <trkpt lat="48.24494" lon="-0.41982">
        <ele>219.507</ele>
        <time>2016-08-16T09:13:27Z</time>
      </trkpt>
      <trkpt lat="48.24512" lon="-0.41961">
        <ele>218.17</ele>
        <time>2016-08-16T09:13:32Z</time>
      </trkpt>
      <trkpt lat="48.24537" lon="-0.41934">
        <ele>215.642</ele>
        <time>2016-08-16T09:13:38Z</time>
      </trkpt>
      <trkpt lat="48.24558" lon="-0.41915">
        <ele>213.569</ele>
        <time>2016-08-16T09:13:43Z</time>
      </trkpt>
      <trkpt lat="48.24574" lon="-0.41899">
        <ele>213.049</ele>
        <time>2016-08-16T09:13:47Z</time>
      </trkpt>
      <trkpt lat="48.24599" lon="-0.41877">
        <ele>213.778</ele>
        <time>2016-08-16T09:13:53Z</time>
      </trkpt>
      <trkpt lat="48.24627" lon="-0.41858">
        <ele>212.883</ele>
        <time>2016-08-16T09:13:58Z</time>
      </trkpt>
      <trkpt lat="48.24649" lon="-0.41847">
        <ele>212.522</ele>
        <time>2016-08-16T09:14:01Z</time>
      </trkpt>
      <trkpt lat="48.24671" lon="-0.41835">
        <ele>211.609</ele>
        <time>2016-08-16T09:14:04Z</time>
      </trkpt>
      <trkpt lat="48.24718" lon="-0.4181">
        <ele>207.212</ele>
        <time>2016-08-16T09:14:10Z</time>
      </trkpt>
      <trkpt lat="48.24767" lon="-0.41783">
        <ele>202.252</ele>
        <time>2016-08-16T09:14:16Z</time>
      </trkpt>
      <trkpt lat="48.24822" lon="-0.41751">
        <ele>201.692</ele>
        <time>2016-08-16T09:14:23Z</time>
      </trkpt>
      <trkpt lat="48.24863" lon="-0.41727">
        <ele>202.959</ele>
        <time>2016-08-16T09:14:29Z</time>
      </trkpt>
      <trkpt lat="48.24898" lon="-0.41714">
        <ele>201.69</ele>
        <time>2016-08-16T09:14:35Z</time>
      </trkpt>
      <trkpt lat="48.24911" lon="-0.41709">
        <ele>201.87</ele>
        <time>2016-08-16T09:14:38Z</time>
      </trkpt>
      <trkpt lat="48.2494" lon="-0.41704">
        <ele>201.015</ele>
        <time>2016-08-16T09:14:45Z</time>
      </trkpt>
      <trkpt lat="48.24968" lon="-0.41702">
        <ele>200.677</ele>
        <time>2016-08-16T09:14:51Z</time>
      </trkpt>
      <trkpt lat="48.24996" lon="-0.41703">
        <ele>199.605</ele>
        <time>2016-08-16T09:14:58Z</time>
      </trkpt>
      <trkpt lat="48.25022" lon="-0.41704">
        <ele>198.947</ele>
        <time>2016-08-16T09:15:04Z</time>
      </trkpt>
      <trkpt lat="48.25044" lon="-0.41705">
        <ele>199.299</ele>
        <time>2016-08-16T09:15:10Z</time>
      </trkpt>
      <trkpt lat="48.25064" lon="-0.41709">
        <ele>198.907</ele>
        <time>2016-08-16T09:15:15Z</time>
      </trkpt>
      <trkpt lat="48.25088" lon="-0.41713">
        <ele>194.757</ele>
        <time>2016-08-16T09:15:21Z</time>
      </trkpt>
      <trkpt lat="48.25115" lon="-0.41715">
        <ele>198.88</ele>
        <time>2016-08-16T09:15:27Z</time>
      </trkpt>
      <trkpt lat="48.25136" lon="-0.41717">
        <ele>199.707</ele>
        <time>2016-08-16T09:15:33Z</time>
      </trkpt>
      <trkpt lat="48.25162" lon="-0.41719">
        <ele>199.958</ele>
        <time>2016-08-16T09:15:40Z</time>
      </trkpt>
      <trkpt lat="48.25181" lon="-0.41723">
        <ele>200.24</ele>
        <time>2016-08-16T09:15:46Z</time>
      </trkpt>
      <trkpt lat="48.25195" lon="-0.41727">
        <ele>200.662</ele>
        <time>2016-08-16T09:15:51Z</time>
      </trkpt>
      <trkpt lat="48.25205" lon="-0.41725">
        <ele>201.113</ele>
        <time>2016-08-16T09:15:55Z</time>
      </trkpt>
      <trkpt lat="48.25212" lon="-0.41708">
        <ele>201.346</ele>
        <time>2016-08-16T09:16:01Z</time>
      </trkpt>
      <trkpt lat="48.25218" lon="-0.41684">
        <ele>201.286</ele>
        <time>2016-08-16T09:16:09Z</time>
      </trkpt>
      <trkpt lat="48.25227" lon="-0.41646">
        <ele>201.418</ele>
        <time>2016-08-16T09:16:20Z</time>
      </trkpt>
      <trkpt lat="48.2524" lon="-0.41632">
        <ele>200.486</ele>
        <time>2016-08-16T09:16:29Z</time>
      </trkpt>
      <trkpt lat="48.25245" lon="-0.41634">
        <ele>200.48</ele>
        <time>2016-08-16T09:16:32Z</time>
      </trkpt>
      <trkpt lat="48.25237" lon="-0.41671">
        <ele>201.725</ele>
        <time>2016-08-16T09:19:12Z</time>
      </trkpt>
      <trkpt lat="48.25234" lon="-0.41688">
        <ele>201.977</ele>
        <time>2016-08-16T09:19:17Z</time>
      </trkpt>
      <trkpt lat="48.2523" lon="-0.41712">
        <ele>201.78</ele>
        <time>2016-08-16T09:19:25Z</time>
      </trkpt>
      <trkpt lat="48.25231" lon="-0.41719">
        <ele>201.619</ele>
        <time>2016-08-16T09:19:28Z</time>
      </trkpt>
      <trkpt lat="48.25244" lon="-0.41735">
        <ele>203.05</ele>
        <time>2016-08-16T09:22:31Z</time>
      </trkpt>
      <trkpt lat="48.25264" lon="-0.41743">
        <ele>202.616</ele>
        <time>2016-08-16T09:22:37Z</time>
      </trkpt>
      <trkpt lat="48.25289" lon="-0.41719">
        <ele>202.014</ele>
        <time>2016-08-16T09:23:54Z</time>
      </trkpt>
      <trkpt lat="48.25301" lon="-0.41687">
        <ele>200.202</ele>
        <time>2016-08-16T09:24:04Z</time>
      </trkpt>
      <trkpt lat="48.25312" lon="-0.41671">
        <ele>199.771</ele>
        <time>2016-08-16T09:24:13Z</time>
      </trkpt>
      <trkpt lat="48.25338" lon="-0.41657">
        <ele>201.552</ele>
        <time>2016-08-16T09:24:27Z</time>
      </trkpt>
      <trkpt lat="48.25343" lon="-0.41654">
        <ele>201.416</ele>
        <time>2016-08-16T09:24:30Z</time>
      </trkpt>
      <trkpt lat="48.25357" lon="-0.41633">
        <ele>210.849</ele>
        <time>2016-08-16T09:26:30Z</time>
      </trkpt>
      <trkpt lat="48.25379" lon="-0.41621">
        <ele>213.168</ele>
        <time>2016-08-16T09:26:41Z</time>
      </trkpt>
      <trkpt lat="48.25411" lon="-0.41584">
        <ele>212.589</ele>
        <time>2016-08-16T09:26:55Z</time>
      </trkpt>
      <trkpt lat="48.25429" lon="-0.41564">
        <ele>211.674</ele>
        <time>2016-08-16T09:27:03Z</time>
      </trkpt>
      <trkpt lat="48.25453" lon="-0.41569">
        <ele>211.333</ele>
        <time>2016-08-16T09:27:12Z</time>
      </trkpt>
      <trkpt lat="48.25466" lon="-0.41574">
        <ele>211.479</ele>
        <time>2016-08-16T09:27:17Z</time>
      </trkpt>
      <trkpt lat="48.25478" lon="-0.4155">
        <ele>210.972</ele>
        <time>2016-08-16T09:27:26Z</time>
      </trkpt>
      <trkpt lat="48.25485" lon="-0.41515">
        <ele>209.014</ele>
        <time>2016-08-16T09:27:34Z</time>
      </trkpt>
      <trkpt lat="48.25492" lon="-0.41487">
        <ele>207.973</ele>
        <time>2016-08-16T09:27:40Z</time>
      </trkpt>
      <trkpt lat="48.25496" lon="-0.41472">
        <ele>207.24</ele>
        <time>2016-08-16T09:27:43Z</time>
      </trkpt>
      <trkpt lat="48.255" lon="-0.41457">
        <ele>206.521</ele>
        <time>2016-08-16T09:27:46Z</time>
      </trkpt>
      <trkpt lat="48.25505" lon="-0.41435">
        <ele>205.249</ele>
        <time>2016-08-16T09:27:51Z</time>
      </trkpt>
      <trkpt lat="48.25511" lon="-0.41407">
        <ele>203.758</ele>
        <time>2016-08-16T09:27:57Z</time>
      </trkpt>
      <trkpt lat="48.25517" lon="-0.41377">
        <ele>202.223</ele>
        <time>2016-08-16T09:28:03Z</time>
      </trkpt>
      <trkpt lat="48.25523" lon="-0.41345">
        <ele>201.652</ele>
        <time>2016-08-16T09:28:09Z</time>
      </trkpt>
      <trkpt lat="48.2553" lon="-0.41318">
        <ele>201.56</ele>
        <time>2016-08-16T09:28:14Z</time>
      </trkpt>
      <trkpt lat="48.25537" lon="-0.41288">
        <ele>201.61</ele>
        <time>2016-08-16T09:28:21Z</time>
      </trkpt>
      <trkpt lat="48.25539" lon="-0.41271">
        <ele>201.534</ele>
        <time>2016-08-16T09:28:25Z</time>
      </trkpt>
      <trkpt lat="48.25542" lon="-0.41257">
        <ele>201.487</ele>
        <time>2016-08-16T09:28:28Z</time>
      </trkpt>
      <trkpt lat="48.2555" lon="-0.41234">
        <ele>201.375</ele>
        <time>2016-08-16T09:28:33Z</time>
      </trkpt>
      <trkpt lat="48.25558" lon="-0.41213">
        <ele>201.15</ele>
        <time>2016-08-16T09:28:38Z</time>
      </trkpt>
      <trkpt lat="48.25568" lon="-0.41185">
        <ele>200.909</ele>
        <time>2016-08-16T09:28:44Z</time>
      </trkpt>
      <trkpt lat="48.25578" lon="-0.41161">
        <ele>201.05</ele>
        <time>2016-08-16T09:28:49Z</time>
      </trkpt>
      <trkpt lat="48.25588" lon="-0.41129">
        <ele>201.519</ele>
        <time>2016-08-16T09:28:56Z</time>
      </trkpt>
      <trkpt lat="48.25597" lon="-0.41096">
        <ele>202.909</ele>
        <time>2016-08-16T09:29:03Z</time>
      </trkpt>
      <trkpt lat="48.25604" lon="-0.41065">
        <ele>204.09</ele>
        <time>2016-08-16T09:29:09Z</time>
      </trkpt>
      <trkpt lat="48.25609" lon="-0.41047">
        <ele>204.847</ele>
        <time>2016-08-16T09:29:13Z</time>
      </trkpt>
      <trkpt lat="48.25613" lon="-0.4102">
        <ele>206.195</ele>
        <time>2016-08-16T09:29:18Z</time>
      </trkpt>
      <trkpt lat="48.25618" lon="-0.4099">
        <ele>208.193</ele>
        <time>2016-08-16T09:29:24Z</time>
      </trkpt>
      <trkpt lat="48.25625" lon="-0.4095">
        <ele>213.47</ele>
        <time>2016-08-16T09:29:31Z</time>
      </trkpt>
      <trkpt lat="48.25627" lon="-0.40917">
        <ele>215.382</ele>
        <time>2016-08-16T09:29:37Z</time>
      </trkpt>
      <trkpt lat="48.25629" lon="-0.40882">
        <ele>217.446</ele>
        <time>2016-08-16T09:29:43Z</time>
      </trkpt>
      <trkpt lat="48.2563" lon="-0.40861">
        <ele>218.832</ele>
        <time>2016-08-16T09:29:47Z</time>
      </trkpt>
      <trkpt lat="48.25631" lon="-0.40833">
        <ele>220.696</ele>
        <time>2016-08-16T09:29:52Z</time>
      </trkpt>
      <trkpt lat="48.25632" lon="-0.4081">
        <ele>223.002</ele>
        <time>2016-08-16T09:29:57Z</time>
      </trkpt>
      <trkpt lat="48.25634" lon="-0.40772">
        <ele>229.272</ele>
        <time>2016-08-16T09:30:05Z</time>
      </trkpt>
      <trkpt lat="48.25635" lon="-0.40742">
        <ele>230.223</ele>
        <time>2016-08-16T09:30:12Z</time>
      </trkpt>
      <trkpt lat="48.25635" lon="-0.40714">
        <ele>230.751</ele>
        <time>2016-08-16T09:30:19Z</time>
      </trkpt>
      <trkpt lat="48.2564" lon="-0.40667">
        <ele>226.033</ele>
        <time>2016-08-16T09:31:36Z</time>
      </trkpt>
      <trkpt lat="48.25641" lon="-0.4065">
        <ele>226.011</ele>
        <time>2016-08-16T09:31:39Z</time>
      </trkpt>
      <trkpt lat="48.2564" lon="-0.40615">
        <ele>228.437</ele>
        <time>2016-08-16T09:31:45Z</time>
      </trkpt>
      <trkpt lat="48.25635" lon="-0.40572">
        <ele>231.317</ele>
        <time>2016-08-16T09:31:51Z</time>
      </trkpt>
      <trkpt lat="48.25625" lon="-0.40534">
        <ele>231.734</ele>
        <time>2016-08-16T09:31:56Z</time>
      </trkpt>
      <trkpt lat="48.25615" lon="-0.40492">
        <ele>229.299</ele>
        <time>2016-08-16T09:32:02Z</time>
      </trkpt>
      <trkpt lat="48.2561" lon="-0.40473">
        <ele>228.911</ele>
        <time>2016-08-16T09:32:05Z</time>
      </trkpt>
      <trkpt lat="48.25606" lon="-0.40454">
        <ele>229.711</ele>
        <time>2016-08-16T09:32:09Z</time>
      </trkpt>
      <trkpt lat="48.25604" lon="-0.40437">
        <ele>230.726</ele>
        <time>2016-08-16T09:32:12Z</time>
      </trkpt>
      <trkpt lat="48.256" lon="-0.4041">
        <ele>230.823</ele>
        <time>2016-08-16T09:32:18Z</time>
      </trkpt>
      <trkpt lat="48.25594" lon="-0.40369">
        <ele>230.941</ele>
        <time>2016-08-16T09:32:26Z</time>
      </trkpt>
      <trkpt lat="48.25592" lon="-0.40343">
        <ele>231.058</ele>
        <time>2016-08-16T09:32:31Z</time>
      </trkpt>
      <trkpt lat="48.25588" lon="-0.40313">
        <ele>231.755</ele>
        <time>2016-08-16T09:32:36Z</time>
      </trkpt>
      <trkpt lat="48.25586" lon="-0.40294">
        <ele>231.56</ele>
        <time>2016-08-16T09:32:39Z</time>
      </trkpt>
      <trkpt lat="48.25583" lon="-0.40268">
        <ele>230.209</ele>
        <time>2016-08-16T09:32:43Z</time>
      </trkpt>
      <trkpt lat="48.2558" lon="-0.40228">
        <ele>229.174</ele>
        <time>2016-08-16T09:32:48Z</time>
      </trkpt>
      <trkpt lat="48.25574" lon="-0.40179">
        <ele>226.416</ele>
        <time>2016-08-16T09:32:54Z</time>
      </trkpt>
      <trkpt lat="48.2557" lon="-0.40154">
        <ele>225.38</ele>
        <time>2016-08-16T09:32:57Z</time>
      </trkpt>
      <trkpt lat="48.25564" lon="-0.4011">
        <ele>226.663</ele>
        <time>2016-08-16T09:33:02Z</time>
      </trkpt>
      <trkpt lat="48.25556" lon="-0.40061">
        <ele>225.455</ele>
        <time>2016-08-16T09:33:07Z</time>
      </trkpt>
      <trkpt lat="48.25544" lon="-0.39995">
        <ele>222.908</ele>
        <time>2016-08-16T09:33:13Z</time>
      </trkpt>
      <trkpt lat="48.25536" lon="-0.39941">
        <ele>222.018</ele>
        <time>2016-08-16T09:33:18Z</time>
      </trkpt>
      <trkpt lat="48.25528" lon="-0.3988">
        <ele>220.343</ele>
        <time>2016-08-16T09:33:24Z</time>
      </trkpt>
      <trkpt lat="48.2552" lon="-0.39823">
        <ele>219.62</ele>
        <time>2016-08-16T09:33:30Z</time>
      </trkpt>
      <trkpt lat="48.25512" lon="-0.39772">
        <ele>217.914</ele>
        <time>2016-08-16T09:33:36Z</time>
      </trkpt>
      <trkpt lat="48.25506" lon="-0.39733">
        <ele>216.543</ele>
        <time>2016-08-16T09:33:41Z</time>
      </trkpt>
      <trkpt lat="48.25499" lon="-0.3969">
        <ele>214.348</ele>
        <time>2016-08-16T09:33:46Z</time>
      </trkpt>
      <trkpt lat="48.25492" lon="-0.39643">
        <ele>216.039</ele>
        <time>2016-08-16T09:33:52Z</time>
      </trkpt>
      <trkpt lat="48.25487" lon="-0.39596">
        <ele>217.121</ele>
        <time>2016-08-16T09:33:58Z</time>
      </trkpt>
      <trkpt lat="48.25488" lon="-0.39544">
        <ele>215.251</ele>
        <time>2016-08-16T09:34:04Z</time>
      </trkpt>
      <trkpt lat="48.25491" lon="-0.3952">
        <ele>214.84</ele>
        <time>2016-08-16T09:34:07Z</time>
      </trkpt>
      <trkpt lat="48.25498" lon="-0.39479">
        <ele>212.889</ele>
        <time>2016-08-16T09:34:12Z</time>
      </trkpt>
      <trkpt lat="48.25504" lon="-0.39443">
        <ele>212.417</ele>
        <time>2016-08-16T09:34:17Z</time>
      </trkpt>
      <trkpt lat="48.25509" lon="-0.39412">
        <ele>212.638</ele>
        <time>2016-08-16T09:34:22Z</time>
      </trkpt>
      <trkpt lat="48.25514" lon="-0.39377">
        <ele>213.678</ele>
        <time>2016-08-16T09:34:28Z</time>
      </trkpt>
      <trkpt lat="48.25516" lon="-0.39359">
        <ele>212.906</ele>
        <time>2016-08-16T09:34:31Z</time>
      </trkpt>
      <trkpt lat="48.2552" lon="-0.39325">
        <ele>211.439</ele>
        <time>2016-08-16T09:34:37Z</time>
      </trkpt>
      <trkpt lat="48.2552" lon="-0.39308">
        <ele>210.871</ele>
        <time>2016-08-16T09:34:40Z</time>
      </trkpt>
      <trkpt lat="48.25521" lon="-0.39266">
        <ele>211.197</ele>
        <time>2016-08-16T09:34:47Z</time>
      </trkpt>
      <trkpt lat="48.25517" lon="-0.39229">
        <ele>212.036</ele>
        <time>2016-08-16T09:34:53Z</time>
      </trkpt>
      <trkpt lat="48.25512" lon="-0.392">
        <ele>211.524</ele>
        <time>2016-08-16T09:34:58Z</time>
      </trkpt>
      <trkpt lat="48.25503" lon="-0.39156">
        <ele>216.656</ele>
        <time>2016-08-16T09:35:06Z</time>
      </trkpt>
      <trkpt lat="48.25497" lon="-0.39122">
        <ele>217.329</ele>
        <time>2016-08-16T09:35:12Z</time>
      </trkpt>
      <trkpt lat="48.25488" lon="-0.39082">
        <ele>216.889</ele>
        <time>2016-08-16T09:35:19Z</time>
      </trkpt>
      <trkpt lat="48.25482" lon="-0.39053">
        <ele>216.964</ele>
        <time>2016-08-16T09:35:24Z</time>
      </trkpt>
      <trkpt lat="48.25474" lon="-0.39016">
        <ele>220.225</ele>
        <time>2016-08-16T09:35:31Z</time>
      </trkpt>
      <trkpt lat="48.2547" lon="-0.38999">
        <ele>220.549</ele>
        <time>2016-08-16T09:35:34Z</time>
      </trkpt>
      <trkpt lat="48.25465" lon="-0.38969">
        <ele>219.875</ele>
        <time>2016-08-16T09:35:39Z</time>
      </trkpt>
      <trkpt lat="48.2546" lon="-0.38945">
        <ele>220.626</ele>
        <time>2016-08-16T09:35:43Z</time>
      </trkpt>
      <trkpt lat="48.25457" lon="-0.38928">
        <ele>219.52</ele>
        <time>2016-08-16T09:35:46Z</time>
      </trkpt>
      <trkpt lat="48.25449" lon="-0.38896">
        <ele>219.22</ele>
        <time>2016-08-16T09:35:52Z</time>
      </trkpt>
      <trkpt lat="48.25442" lon="-0.38864">
        <ele>219.321</ele>
        <time>2016-08-16T09:35:58Z</time>
      </trkpt>
      <trkpt lat="48.25435" lon="-0.38825">
        <ele>220.628</ele>
        <time>2016-08-16T09:36:05Z</time>
      </trkpt>
      <trkpt lat="48.25428" lon="-0.38792">
        <ele>220.049</ele>
        <time>2016-08-16T09:36:11Z</time>
      </trkpt>
      <trkpt lat="48.25425" lon="-0.38775">
        <ele>220.487</ele>
        <time>2016-08-16T09:36:14Z</time>
      </trkpt>
      <trkpt lat="48.25418" lon="-0.3874">
        <ele>219.111</ele>
        <time>2016-08-16T09:36:20Z</time>
      </trkpt>
      <trkpt lat="48.25414" lon="-0.38723">
        <ele>217.982</ele>
        <time>2016-08-16T09:36:23Z</time>
      </trkpt>
      <trkpt lat="48.25406" lon="-0.38685">
        <ele>219.075</ele>
        <time>2016-08-16T09:36:29Z</time>
      </trkpt>
      <trkpt lat="48.25399" lon="-0.3865">
        <ele>218.091</ele>
        <time>2016-08-16T09:36:35Z</time>
      </trkpt>
      <trkpt lat="48.2539" lon="-0.38605">
        <ele>216.288</ele>
        <time>2016-08-16T09:36:43Z</time>
      </trkpt>
      <trkpt lat="48.25385" lon="-0.38585">
        <ele>217.461</ele>
        <time>2016-08-16T09:36:46Z</time>
      </trkpt>
      <trkpt lat="48.25378" lon="-0.38548">
        <ele>218.827</ele>
        <time>2016-08-16T09:36:52Z</time>
      </trkpt>
      <trkpt lat="48.25372" lon="-0.38514">
        <ele>219.359</ele>
        <time>2016-08-16T09:36:58Z</time>
      </trkpt>
      <trkpt lat="48.25365" lon="-0.38479">
        <ele>221.1</ele>
        <time>2016-08-16T09:37:04Z</time>
      </trkpt>
      <trkpt lat="48.25359" lon="-0.38445">
        <ele>220.701</ele>
        <time>2016-08-16T09:37:10Z</time>
      </trkpt>
      <trkpt lat="48.25351" lon="-0.3841">
        <ele>220.109</ele>
        <time>2016-08-16T09:37:16Z</time>
      </trkpt>
      <trkpt lat="48.25344" lon="-0.38377">
        <ele>221.246</ele>
        <time>2016-08-16T09:37:21Z</time>
      </trkpt>
      <trkpt lat="48.25339" lon="-0.38353">
        <ele>219.96</ele>
        <time>2016-08-16T09:37:25Z</time>
      </trkpt>
      <trkpt lat="48.25331" lon="-0.38317">
        <ele>219.957</ele>
        <time>2016-08-16T09:37:31Z</time>
      </trkpt>
      <trkpt lat="48.25325" lon="-0.38283">
        <ele>220.122</ele>
        <time>2016-08-16T09:37:37Z</time>
      </trkpt>
      <trkpt lat="48.25317" lon="-0.38246">
        <ele>220.777</ele>
        <time>2016-08-16T09:37:43Z</time>
      </trkpt>
      <trkpt lat="48.2531" lon="-0.3821">
        <ele>222.833</ele>
        <time>2016-08-16T09:37:49Z</time>
      </trkpt>
      <trkpt lat="48.25305" lon="-0.38177">
        <ele>223.068</ele>
        <time>2016-08-16T09:37:55Z</time>
      </trkpt>
      <trkpt lat="48.253" lon="-0.38146">
        <ele>223.029</ele>
        <time>2016-08-16T09:38:01Z</time>
      </trkpt>
      <trkpt lat="48.25292" lon="-0.38103">
        <ele>223.167</ele>
        <time>2016-08-16T09:38:09Z</time>
      </trkpt>
      <trkpt lat="48.25291" lon="-0.38089">
        <ele>223.294</ele>
        <time>2016-08-16T09:38:12Z</time>
      </trkpt>
      <trkpt lat="48.25288" lon="-0.38066">
        <ele>223.319</ele>
        <time>2016-08-16T09:38:17Z</time>
      </trkpt>
      <trkpt lat="48.25288" lon="-0.38037">
        <ele>223.317</ele>
        <time>2016-08-16T09:38:24Z</time>
      </trkpt>
      <trkpt lat="48.25291" lon="-0.3803">
        <ele>223.323</ele>
        <time>2016-08-16T09:38:27Z</time>
      </trkpt>
      <trkpt lat="48.25302" lon="-0.38006">
        <ele>223.965</ele>
        <time>2016-08-16T09:39:06Z</time>
      </trkpt>
      <trkpt lat="48.25303" lon="-0.38003">
        <ele>224.027</ele>
        <time>2016-08-16T09:39:11Z</time>
      </trkpt>
      <trkpt lat="48.25293" lon="-0.38028">
        <ele>227.595</ele>
        <time>2016-08-16T09:43:22Z</time>
      </trkpt>
      <trkpt lat="48.25296" lon="-0.38021">
        <ele>227.896</ele>
        <time>2016-08-16T09:45:04Z</time>
      </trkpt>
      <trkpt lat="48.25289" lon="-0.37997">
        <ele>223.583</ele>
        <time>2016-08-16T09:45:51Z</time>
      </trkpt>
      <trkpt lat="48.25289" lon="-0.37971">
        <ele>223.398</ele>
        <time>2016-08-16T09:45:56Z</time>
      </trkpt>
      <trkpt lat="48.25288" lon="-0.37946">
        <ele>224.047</ele>
        <time>2016-08-16T09:46:00Z</time>
      </trkpt>
      <trkpt lat="48.25287" lon="-0.37918">
        <ele>224.599</ele>
        <time>2016-08-16T09:46:05Z</time>
      </trkpt>
      <trkpt lat="48.25287" lon="-0.37881">
        <ele>225.298</ele>
        <time>2016-08-16T09:46:12Z</time>
      </trkpt>
      <trkpt lat="48.25287" lon="-0.37836">
        <ele>226.018</ele>
        <time>2016-08-16T09:46:19Z</time>
      </trkpt>
      <trkpt lat="48.25288" lon="-0.37804">
        <ele>227.656</ele>
        <time>2016-08-16T09:46:25Z</time>
      </trkpt>
      <trkpt lat="48.25288" lon="-0.37792">
        <ele>228.033</ele>
        <time>2016-08-16T09:46:28Z</time>
      </trkpt>
      <trkpt lat="48.25289" lon="-0.37744">
        <ele>229.045</ele>
        <time>2016-08-16T09:46:37Z</time>
      </trkpt>
      <trkpt lat="48.25288" lon="-0.37709">
        <ele>228.206</ele>
        <time>2016-08-16T09:46:43Z</time>
      </trkpt>
      <trkpt lat="48.25289" lon="-0.3767">
        <ele>224.118</ele>
        <time>2016-08-16T09:46:49Z</time>
      </trkpt>
      <trkpt lat="48.25287" lon="-0.37638">
        <ele>221.138</ele>
        <time>2016-08-16T09:46:54Z</time>
      </trkpt>
      <trkpt lat="48.25287" lon="-0.37599">
        <ele>217.126</ele>
        <time>2016-08-16T09:47:00Z</time>
      </trkpt>
      <trkpt lat="48.25287" lon="-0.3757">
        <ele>215.047</ele>
        <time>2016-08-16T09:47:05Z</time>
      </trkpt>
      <trkpt lat="48.25287" lon="-0.3754">
        <ele>215.256</ele>
        <time>2016-08-16T09:47:10Z</time>
      </trkpt>
      <trkpt lat="48.25288" lon="-0.37505">
        <ele>215.879</ele>
        <time>2016-08-16T09:47:16Z</time>
      </trkpt>
      <trkpt lat="48.25283" lon="-0.3748">
        <ele>215.333</ele>
        <time>2016-08-16T09:47:20Z</time>
      </trkpt>
      <trkpt lat="48.25276" lon="-0.3746">
        <ele>215.093</ele>
        <time>2016-08-16T09:47:23Z</time>
      </trkpt>
      <trkpt lat="48.25265" lon="-0.37438">
        <ele>215.329</ele>
        <time>2016-08-16T09:47:28Z</time>
      </trkpt>
      <trkpt lat="48.25246" lon="-0.37405">
        <ele>215.775</ele>
        <time>2016-08-16T09:47:35Z</time>
      </trkpt>
      <trkpt lat="48.25235" lon="-0.37381">
        <ele>217.97</ele>
        <time>2016-08-16T09:47:40Z</time>
      </trkpt>
      <trkpt lat="48.25216" lon="-0.37341">
        <ele>222.356</ele>
        <time>2016-08-16T09:47:48Z</time>
      </trkpt>
      <trkpt lat="48.25207" lon="-0.37316">
        <ele>222.757</ele>
        <time>2016-08-16T09:47:53Z</time>
      </trkpt>
      <trkpt lat="48.25195" lon="-0.3728">
        <ele>223.409</ele>
        <time>2016-08-16T09:48:00Z</time>
      </trkpt>
      <trkpt lat="48.25187" lon="-0.37248">
        <ele>223.915</ele>
        <time>2016-08-16T09:48:06Z</time>
      </trkpt>
      <trkpt lat="48.25179" lon="-0.37208">
        <ele>225.465</ele>
        <time>2016-08-16T09:48:13Z</time>
      </trkpt>
      <trkpt lat="48.25171" lon="-0.37172">
        <ele>227.038</ele>
        <time>2016-08-16T09:48:19Z</time>
      </trkpt>
      <trkpt lat="48.2516" lon="-0.37129">
        <ele>226.678</ele>
        <time>2016-08-16T09:48:27Z</time>
      </trkpt>
      <trkpt lat="48.25153" lon="-0.37097">
        <ele>226.65</ele>
        <time>2016-08-16T09:48:33Z</time>
      </trkpt>
      <trkpt lat="48.25148" lon="-0.37082">
        <ele>226.839</ele>
        <time>2016-08-16T09:48:36Z</time>
      </trkpt>
      <trkpt lat="48.25142" lon="-0.37067">
        <ele>226.863</ele>
        <time>2016-08-16T09:48:39Z</time>
      </trkpt>
      <trkpt lat="48.25134" lon="-0.37035">
        <ele>227.439</ele>
        <time>2016-08-16T09:48:46Z</time>
      </trkpt>
      <trkpt lat="48.25138" lon="-0.37013">
        <ele>227.983</ele>
        <time>2016-08-16T09:48:52Z</time>
      </trkpt>
      <trkpt lat="48.25163" lon="-0.37">
        <ele>228.443</ele>
        <time>2016-08-16T09:49:01Z</time>
      </trkpt>
      <trkpt lat="48.25186" lon="-0.36984">
        <ele>228.973</ele>
        <time>2016-08-16T09:49:08Z</time>
      </trkpt>
      <trkpt lat="48.25203" lon="-0.36972">
        <ele>228.689</ele>
        <time>2016-08-16T09:49:14Z</time>
      </trkpt>
      <trkpt lat="48.25211" lon="-0.36947">
        <ele>227.979</ele>
        <time>2016-08-16T09:49:22Z</time>
      </trkpt>
      <trkpt lat="48.25204" lon="-0.36914">
        <ele>227.238</ele>
        <time>2016-08-16T09:49:29Z</time>
      </trkpt>
      <trkpt lat="48.25196" lon="-0.36886">
        <ele>226.131</ele>
        <time>2016-08-16T09:49:36Z</time>
      </trkpt>
      <trkpt lat="48.25186" lon="-0.36877">
        <ele>225.271</ele>
        <time>2016-08-16T09:49:46Z</time>
      </trkpt>
      <trkpt lat="48.25179" lon="-0.3688">
        <ele>225.836</ele>
        <time>2016-08-16T09:49:57Z</time>
      </trkpt>
      <trkpt lat="48.25201" lon="-0.3687">
        <ele>230.321</ele>
        <time>2016-08-16T09:57:32Z</time>
      </trkpt>
      <trkpt lat="48.25219" lon="-0.36862">
        <ele>229.258</ele>
        <time>2016-08-16T09:57:39Z</time>
      </trkpt>
      <trkpt lat="48.25229" lon="-0.36873">
        <ele>228.131</ele>
        <time>2016-08-16T09:57:45Z</time>
      </trkpt>
      <trkpt lat="48.2523" lon="-0.36879">
        <ele>227.759</ele>
        <time>2016-08-16T09:57:47Z</time>
      </trkpt>
      <trkpt lat="48.25234" lon="-0.36897">
        <ele>227.412</ele>
        <time>2016-08-16T09:58:16Z</time>
      </trkpt>
      <trkpt lat="48.25241" lon="-0.36934">
        <ele>226.641</ele>
        <time>2016-08-16T09:58:25Z</time>
      </trkpt>
      <trkpt lat="48.25243" lon="-0.36941">
        <ele>226.22</ele>
        <time>2016-08-16T09:58:27Z</time>
      </trkpt>
      <trkpt lat="48.25247" lon="-0.36966">
        <ele>227.021</ele>
        <time>2016-08-16T09:58:59Z</time>
      </trkpt>
      <trkpt lat="48.25264" lon="-0.3699">
        <ele>226.653</ele>
        <time>2016-08-16T09:59:06Z</time>
      </trkpt>
      <trkpt lat="48.25285" lon="-0.36973">
        <ele>226.153</ele>
        <time>2016-08-16T09:59:14Z</time>
      </trkpt>
      <trkpt lat="48.253" lon="-0.3696">
        <ele>226.035</ele>
        <time>2016-08-16T09:59:20Z</time>
      </trkpt>
      <trkpt lat="48.25324" lon="-0.36943">
        <ele>226.397</ele>
        <time>2016-08-16T09:59:28Z</time>
      </trkpt>
      <trkpt lat="48.25341" lon="-0.36918">
        <ele>226.082</ele>
        <time>2016-08-16T09:59:36Z</time>
      </trkpt>
      <trkpt lat="48.25361" lon="-0.36923">
        <ele>224.688</ele>
        <time>2016-08-16T09:59:43Z</time>
      </trkpt>
      <trkpt lat="48.25373" lon="-0.36949">
        <ele>217.904</ele>
        <time>2016-08-16T09:59:48Z</time>
      </trkpt>
      <trkpt lat="48.25379" lon="-0.36965">
        <ele>215.944</ele>
        <time>2016-08-16T09:59:51Z</time>
      </trkpt>
      <trkpt lat="48.25389" lon="-0.36985">
        <ele>215.856</ele>
        <time>2016-08-16T09:59:57Z</time>
      </trkpt>
      <trkpt lat="48.25406" lon="-0.36983">
        <ele>216.827</ele>
        <time>2016-08-16T10:00:05Z</time>
      </trkpt>
      <trkpt lat="48.25418" lon="-0.37013">
        <ele>218.085</ele>
        <time>2016-08-16T10:00:17Z</time>
      </trkpt>
      <trkpt lat="48.2547" lon="-0.36979">
        <ele>218.472</ele>
        <time>2016-08-16T10:00:35Z</time>
      </trkpt>
      <trkpt lat="48.2549" lon="-0.36974">
        <ele>218.492</ele>
        <time>2016-08-16T10:00:41Z</time>
      </trkpt>
      <trkpt lat="48.25507" lon="-0.36963">
        <ele>218.774</ele>
        <time>2016-08-16T10:00:46Z</time>
      </trkpt>
      <trkpt lat="48.25524" lon="-0.36934">
        <ele>218.724</ele>
        <time>2016-08-16T10:00:54Z</time>
      </trkpt>
      <trkpt lat="48.25542" lon="-0.36902">
        <ele>218.947</ele>
        <time>2016-08-16T10:01:02Z</time>
      </trkpt>
      <trkpt lat="48.25554" lon="-0.36876">
        <ele>219.543</ele>
        <time>2016-08-16T10:01:08Z</time>
      </trkpt>
      <trkpt lat="48.25544" lon="-0.36861">
        <ele>220.037</ele>
        <time>2016-08-16T10:01:14Z</time>
      </trkpt>
      <trkpt lat="48.25523" lon="-0.36843">
        <ele>220.308</ele>
        <time>2016-08-16T10:01:21Z</time>
      </trkpt>
      <trkpt lat="48.25509" lon="-0.36828">
        <ele>220.526</ele>
        <time>2016-08-16T10:01:26Z</time>
      </trkpt>
      <trkpt lat="48.25491" lon="-0.36813">
        <ele>220.765</ele>
        <time>2016-08-16T10:01:32Z</time>
      </trkpt>
      <trkpt lat="48.25469" lon="-0.36793">
        <ele>221.088</ele>
        <time>2016-08-16T10:01:39Z</time>
      </trkpt>
      <trkpt lat="48.25451" lon="-0.36778">
        <ele>221.699</ele>
        <time>2016-08-16T10:01:45Z</time>
      </trkpt>
      <trkpt lat="48.25434" lon="-0.36759">
        <ele>221.823</ele>
        <time>2016-08-16T10:01:51Z</time>
      </trkpt>
      <trkpt lat="48.25419" lon="-0.36745">
        <ele>222.077</ele>
        <time>2016-08-16T10:01:57Z</time>
      </trkpt>
      <trkpt lat="48.25389" lon="-0.36716">
        <ele>221.22</ele>
        <time>2016-08-16T10:02:07Z</time>
      </trkpt>
      <trkpt lat="48.25375" lon="-0.36701">
        <ele>221.326</ele>
        <time>2016-08-16T10:02:13Z</time>
      </trkpt>
      <trkpt lat="48.2536" lon="-0.36684">
        <ele>221.411</ele>
        <time>2016-08-16T10:02:19Z</time>
      </trkpt>
      <trkpt lat="48.25338" lon="-0.36665">
        <ele>221.859</ele>
        <time>2016-08-16T10:02:27Z</time>
      </trkpt>
      <trkpt lat="48.2532" lon="-0.36645">
        <ele>222.213</ele>
        <time>2016-08-16T10:02:34Z</time>
      </trkpt>
      <trkpt lat="48.253" lon="-0.36626">
        <ele>222.378</ele>
        <time>2016-08-16T10:02:42Z</time>
      </trkpt>
      <trkpt lat="48.25289" lon="-0.36613">
        <ele>222.394</ele>
        <time>2016-08-16T10:02:47Z</time>
      </trkpt>
      <trkpt lat="48.25263" lon="-0.36582">
        <ele>223.492</ele>
        <time>2016-08-16T10:02:55Z</time>
      </trkpt>
      <trkpt lat="48.25248" lon="-0.3656">
        <ele>223.214</ele>
        <time>2016-08-16T10:03:00Z</time>
      </trkpt>
      <trkpt lat="48.25232" lon="-0.36538">
        <ele>224.408</ele>
        <time>2016-08-16T10:03:06Z</time>
      </trkpt>
      <trkpt lat="48.25216" lon="-0.36516">
        <ele>224.885</ele>
        <time>2016-08-16T10:03:12Z</time>
      </trkpt>
      <trkpt lat="48.252" lon="-0.36493">
        <ele>224.785</ele>
        <time>2016-08-16T10:03:19Z</time>
      </trkpt>
      <trkpt lat="48.25186" lon="-0.36464">
        <ele>224.972</ele>
        <time>2016-08-16T10:03:26Z</time>
      </trkpt>
      <trkpt lat="48.25173" lon="-0.36441">
        <ele>225.47</ele>
        <time>2016-08-16T10:03:31Z</time>
      </trkpt>
      <trkpt lat="48.25157" lon="-0.3642">
        <ele>225.925</ele>
        <time>2016-08-16T10:03:37Z</time>
      </trkpt>
      <trkpt lat="48.25145" lon="-0.36401">
        <ele>226.156</ele>
        <time>2016-08-16T10:03:44Z</time>
      </trkpt>
      <trkpt lat="48.25127" lon="-0.36369">
        <ele>226.466</ele>
        <time>2016-08-16T10:03:52Z</time>
      </trkpt>
      <trkpt lat="48.25112" lon="-0.36344">
        <ele>226.538</ele>
        <time>2016-08-16T10:03:59Z</time>
      </trkpt>
      <trkpt lat="48.251" lon="-0.36307">
        <ele>227.149</ele>
        <time>2016-08-16T10:04:06Z</time>
      </trkpt>
      <trkpt lat="48.25087" lon="-0.36273">
        <ele>228.732</ele>
        <time>2016-08-16T10:04:13Z</time>
      </trkpt>
      <trkpt lat="48.25076" lon="-0.36246">
        <ele>228.904</ele>
        <time>2016-08-16T10:04:19Z</time>
      </trkpt>
      <trkpt lat="48.25082" lon="-0.36218">
        <ele>230.66</ele>
        <time>2016-08-16T10:04:26Z</time>
      </trkpt>
      <trkpt lat="48.25095" lon="-0.36199">
        <ele>231.19</ele>
        <time>2016-08-16T10:04:31Z</time>
      </trkpt>
      <trkpt lat="48.25118" lon="-0.36176">
        <ele>231.868</ele>
        <time>2016-08-16T10:04:39Z</time>
      </trkpt>
      <trkpt lat="48.25132" lon="-0.36155">
        <ele>232.441</ele>
        <time>2016-08-16T10:04:45Z</time>
      </trkpt>
      <trkpt lat="48.25136" lon="-0.36136">
        <ele>232.599</ele>
        <time>2016-08-16T10:04:50Z</time>
      </trkpt>
      <trkpt lat="48.25149" lon="-0.36108">
        <ele>232.686</ele>
        <time>2016-08-16T10:04:56Z</time>
      </trkpt>
      <trkpt lat="48.25163" lon="-0.36088">
        <ele>232.627</ele>
        <time>2016-08-16T10:05:02Z</time>
      </trkpt>
      <trkpt lat="48.25173" lon="-0.36074">
        <ele>232.397</ele>
        <time>2016-08-16T10:05:06Z</time>
      </trkpt>
      <trkpt lat="48.25192" lon="-0.36044">
        <ele>232.71</ele>
        <time>2016-08-16T10:05:14Z</time>
      </trkpt>
      <trkpt lat="48.25208" lon="-0.3602">
        <ele>233.8</ele>
        <time>2016-08-16T10:05:21Z</time>
      </trkpt>
      <trkpt lat="48.25217" lon="-0.3599">
        <ele>235.258</ele>
        <time>2016-08-16T10:05:29Z</time>
      </trkpt>
      <trkpt lat="48.25221" lon="-0.35957">
        <ele>236.455</ele>
        <time>2016-08-16T10:05:39Z</time>
      </trkpt>
      <trkpt lat="48.2524" lon="-0.35961">
        <ele>237.824</ele>
        <time>2016-08-16T10:05:48Z</time>
      </trkpt>
      <trkpt lat="48.2524" lon="-0.35961">
        <ele>237.824</ele>
        <time>2016-08-16T10:05:56Z</time>
      </trkpt>
    </trkseg>
    </trkseg>
  </trk>
</gpx>